<?xml version="1.0" encoding="UTF-8" standalone="no" ?>
<gpx xmlns="http://www.topografix.com/GPX/1/1" xmlns:xsi="http://www.w3.org/2001/XMLSchema-instance" xsi:schemaLocation="http://www.topografix.com/GPX/1/1 http://www.topografix.com/GPX/1/1/gpx.xsd" version="1.1" creator="VisuGPX - https://www.visugpx.com">
  <metadata>
    <name>Les moulins de la Véroncle</name>
    <desc><![CDATA[Balade dans les gorges de la Véroncle à la découverte des moulins.]]></desc>
  </metadata>
  <trk>
    <name><![CDATA[2021-03-22 14-17-26]]></name>
    <trkseg>
      <trkpt lat="43.92795" lon="5.2082">
        <ele>461.57</ele>
        <time>2021-03-22T08:20:34Z</time>
      </trkpt>
      <trkpt lat="43.92795" lon="5.2082">
        <ele>461.57</ele>
        <time>2021-03-22T08:20:35Z</time>
      </trkpt>
      <trkpt lat="43.92797" lon="5.20822">
        <ele>461.09</ele>
        <time>2021-03-22T08:20:53Z</time>
      </trkpt>
      <trkpt lat="43.928" lon="5.20826">
        <ele>461.09</ele>
        <time>2021-03-22T08:21:14Z</time>
      </trkpt>
      <trkpt lat="43.92802" lon="5.20833">
        <ele>460.61</ele>
        <time>2021-03-22T08:21:47Z</time>
      </trkpt>
      <trkpt lat="43.92802" lon="5.20834">
        <ele>461.57</ele>
        <time>2021-03-22T08:21:58Z</time>
      </trkpt>
      <trkpt lat="43.92803" lon="5.20834">
        <ele>461.57</ele>
        <time>2021-03-22T08:22:33Z</time>
      </trkpt>
      <trkpt lat="43.92803" lon="5.20834">
        <ele>463.01</ele>
        <time>2021-03-22T08:22:35Z</time>
      </trkpt>
      <trkpt lat="43.92802" lon="5.20832">
        <ele>461.09</ele>
        <time>2021-03-22T08:23:05Z</time>
      </trkpt>
      <trkpt lat="43.92801" lon="5.20832">
        <ele>461.57</ele>
        <time>2021-03-22T08:23:37Z</time>
      </trkpt>
      <trkpt lat="43.92802" lon="5.20831">
        <ele>461.57</ele>
        <time>2021-03-22T08:24:03Z</time>
      </trkpt>
      <trkpt lat="43.92803" lon="5.20831">
        <ele>461.57</ele>
        <time>2021-03-22T08:24:36Z</time>
      </trkpt>
      <trkpt lat="43.92803" lon="5.20835">
        <ele>461.57</ele>
        <time>2021-03-22T08:25:05Z</time>
      </trkpt>
      <trkpt lat="43.92801" lon="5.20833">
        <ele>460.61</ele>
        <time>2021-03-22T08:25:36Z</time>
      </trkpt>
      <trkpt lat="43.92801" lon="5.20833">
        <ele>461.09</ele>
        <time>2021-03-22T08:26:06Z</time>
      </trkpt>
      <trkpt lat="43.9281" lon="5.20833">
        <ele>461.09</ele>
        <time>2021-03-22T08:26:27Z</time>
      </trkpt>
      <trkpt lat="43.92813" lon="5.20835">
        <ele>461.57</ele>
        <time>2021-03-22T08:26:31Z</time>
      </trkpt>
      <trkpt lat="43.92814" lon="5.20836">
        <ele>461.57</ele>
        <time>2021-03-22T08:26:32Z</time>
      </trkpt>
      <trkpt lat="43.92815" lon="5.20836">
        <ele>461.57</ele>
        <time>2021-03-22T08:26:33Z</time>
      </trkpt>
      <trkpt lat="43.92828" lon="5.20848">
        <ele>461.57</ele>
        <time>2021-03-22T08:26:50Z</time>
      </trkpt>
      <trkpt lat="43.92829" lon="5.20849">
        <ele>461.57</ele>
        <time>2021-03-22T08:26:51Z</time>
      </trkpt>
      <trkpt lat="43.92838" lon="5.20865">
        <ele>462.53</ele>
        <time>2021-03-22T08:27:05Z</time>
      </trkpt>
      <trkpt lat="43.92853" lon="5.20888">
        <ele>463.01</ele>
        <time>2021-03-22T08:27:23Z</time>
      </trkpt>
      <trkpt lat="43.92867" lon="5.20916">
        <ele>464.45</ele>
        <time>2021-03-22T08:27:42Z</time>
      </trkpt>
      <trkpt lat="43.92873" lon="5.20936">
        <ele>465.42</ele>
        <time>2021-03-22T08:27:56Z</time>
      </trkpt>
      <trkpt lat="43.92874" lon="5.20937">
        <ele>465.42</ele>
        <time>2021-03-22T08:27:57Z</time>
      </trkpt>
      <trkpt lat="43.92874" lon="5.20939">
        <ele>465.42</ele>
        <time>2021-03-22T08:27:58Z</time>
      </trkpt>
      <trkpt lat="43.92887" lon="5.20974">
        <ele>466.38</ele>
        <time>2021-03-22T08:28:20Z</time>
      </trkpt>
      <trkpt lat="43.92902" lon="5.21004">
        <ele>467.34</ele>
        <time>2021-03-22T08:28:41Z</time>
      </trkpt>
      <trkpt lat="43.92922" lon="5.2103">
        <ele>468.3</ele>
        <time>2021-03-22T08:29:02Z</time>
      </trkpt>
      <trkpt lat="43.92944" lon="5.21052">
        <ele>469.26</ele>
        <time>2021-03-22T08:29:22Z</time>
      </trkpt>
      <trkpt lat="43.92968" lon="5.21069">
        <ele>470.22</ele>
        <time>2021-03-22T08:29:43Z</time>
      </trkpt>
      <trkpt lat="43.92989" lon="5.21089">
        <ele>471.66</ele>
        <time>2021-03-22T08:30:04Z</time>
      </trkpt>
      <trkpt lat="43.93005" lon="5.21115">
        <ele>472.14</ele>
        <time>2021-03-22T08:30:26Z</time>
      </trkpt>
      <trkpt lat="43.93016" lon="5.21135">
        <ele>470.7</ele>
        <time>2021-03-22T08:30:44Z</time>
      </trkpt>
      <trkpt lat="43.93021" lon="5.21165">
        <ele>469.74</ele>
        <time>2021-03-22T08:31:03Z</time>
      </trkpt>
      <trkpt lat="43.93014" lon="5.21182">
        <ele>466.86</ele>
        <time>2021-03-22T08:31:19Z</time>
      </trkpt>
      <trkpt lat="43.93005" lon="5.212">
        <ele>463.97</ele>
        <time>2021-03-22T08:31:35Z</time>
      </trkpt>
      <trkpt lat="43.92994" lon="5.21227">
        <ele>461.57</ele>
        <time>2021-03-22T08:31:55Z</time>
      </trkpt>
      <trkpt lat="43.9298" lon="5.21251">
        <ele>462.05</ele>
        <time>2021-03-22T08:32:14Z</time>
      </trkpt>
      <trkpt lat="43.92978" lon="5.21255">
        <ele>462.05</ele>
        <time>2021-03-22T08:32:17Z</time>
      </trkpt>
      <trkpt lat="43.9296" lon="5.21275">
        <ele>463.49</ele>
        <time>2021-03-22T08:32:36Z</time>
      </trkpt>
      <trkpt lat="43.92944" lon="5.21296">
        <ele>465.9</ele>
        <time>2021-03-22T08:32:55Z</time>
      </trkpt>
      <trkpt lat="43.92928" lon="5.21315">
        <ele>467.82</ele>
        <time>2021-03-22T08:33:14Z</time>
      </trkpt>
      <trkpt lat="43.92912" lon="5.2132">
        <ele>466.86</ele>
        <time>2021-03-22T08:33:30Z</time>
      </trkpt>
      <trkpt lat="43.92891" lon="5.21328">
        <ele>464.45</ele>
        <time>2021-03-22T08:33:50Z</time>
      </trkpt>
      <trkpt lat="43.92882" lon="5.21332">
        <ele>463.01</ele>
        <time>2021-03-22T08:34:01Z</time>
      </trkpt>
      <trkpt lat="43.9288" lon="5.21333">
        <ele>462.53</ele>
        <time>2021-03-22T08:34:03Z</time>
      </trkpt>
      <trkpt lat="43.92879" lon="5.21334">
        <ele>462.53</ele>
        <time>2021-03-22T08:34:04Z</time>
      </trkpt>
      <trkpt lat="43.92863" lon="5.21343">
        <ele>459.65</ele>
        <time>2021-03-22T08:34:21Z</time>
      </trkpt>
      <trkpt lat="43.92856" lon="5.21345">
        <ele>458.69</ele>
        <time>2021-03-22T08:34:28Z</time>
      </trkpt>
      <trkpt lat="43.9284" lon="5.21348">
        <ele>456.28</ele>
        <time>2021-03-22T08:34:47Z</time>
      </trkpt>
      <trkpt lat="43.92826" lon="5.21358">
        <ele>453.4</ele>
        <time>2021-03-22T08:35:05Z</time>
      </trkpt>
      <trkpt lat="43.92807" lon="5.21368">
        <ele>450.03</ele>
        <time>2021-03-22T08:35:24Z</time>
      </trkpt>
      <trkpt lat="43.92801" lon="5.21373">
        <ele>449.07</ele>
        <time>2021-03-22T08:35:30Z</time>
      </trkpt>
      <trkpt lat="43.9279" lon="5.21391">
        <ele>446.19</ele>
        <time>2021-03-22T08:35:48Z</time>
      </trkpt>
      <trkpt lat="43.92777" lon="5.21401">
        <ele>443.79</ele>
        <time>2021-03-22T08:36:04Z</time>
      </trkpt>
      <trkpt lat="43.92772" lon="5.21406">
        <ele>442.82</ele>
        <time>2021-03-22T08:36:10Z</time>
      </trkpt>
      <trkpt lat="43.92765" lon="5.21415">
        <ele>441.38</ele>
        <time>2021-03-22T08:36:21Z</time>
      </trkpt>
      <trkpt lat="43.92756" lon="5.21425">
        <ele>439.46</ele>
        <time>2021-03-22T08:36:32Z</time>
      </trkpt>
      <trkpt lat="43.92754" lon="5.21426">
        <ele>439.46</ele>
        <time>2021-03-22T08:36:33Z</time>
      </trkpt>
      <trkpt lat="43.92746" lon="5.2143">
        <ele>438.98</ele>
        <time>2021-03-22T08:36:40Z</time>
      </trkpt>
      <trkpt lat="43.92734" lon="5.21447">
        <ele>435.61</ele>
        <time>2021-03-22T08:36:56Z</time>
      </trkpt>
      <trkpt lat="43.92723" lon="5.21466">
        <ele>432.73</ele>
        <time>2021-03-22T08:37:14Z</time>
      </trkpt>
      <trkpt lat="43.9271" lon="5.21487">
        <ele>429.37</ele>
        <time>2021-03-22T08:37:33Z</time>
      </trkpt>
      <trkpt lat="43.927" lon="5.21509">
        <ele>427.44</ele>
        <time>2021-03-22T08:37:51Z</time>
      </trkpt>
      <trkpt lat="43.92694" lon="5.2153">
        <ele>424.08</ele>
        <time>2021-03-22T08:38:08Z</time>
      </trkpt>
      <trkpt lat="43.92681" lon="5.21549">
        <ele>421.68</ele>
        <time>2021-03-22T08:38:26Z</time>
      </trkpt>
      <trkpt lat="43.92666" lon="5.21571">
        <ele>418.79</ele>
        <time>2021-03-22T08:38:46Z</time>
      </trkpt>
      <trkpt lat="43.92655" lon="5.21594">
        <ele>416.39</ele>
        <time>2021-03-22T08:39:05Z</time>
      </trkpt>
      <trkpt lat="43.92644" lon="5.21616">
        <ele>413.98</ele>
        <time>2021-03-22T08:39:23Z</time>
      </trkpt>
      <trkpt lat="43.92643" lon="5.21616">
        <ele>413.98</ele>
        <time>2021-03-22T08:39:24Z</time>
      </trkpt>
      <trkpt lat="43.92642" lon="5.21617">
        <ele>413.98</ele>
        <time>2021-03-22T08:39:25Z</time>
      </trkpt>
      <trkpt lat="43.92641" lon="5.21619">
        <ele>413.98</ele>
        <time>2021-03-22T08:39:26Z</time>
      </trkpt>
      <trkpt lat="43.9264" lon="5.2162">
        <ele>413.5</ele>
        <time>2021-03-22T08:39:27Z</time>
      </trkpt>
      <trkpt lat="43.92633" lon="5.21642">
        <ele>411.58</ele>
        <time>2021-03-22T08:39:45Z</time>
      </trkpt>
      <trkpt lat="43.92627" lon="5.21662">
        <ele>409.18</ele>
        <time>2021-03-22T08:40:01Z</time>
      </trkpt>
      <trkpt lat="43.92618" lon="5.2168">
        <ele>405.81</ele>
        <time>2021-03-22T08:40:17Z</time>
      </trkpt>
      <trkpt lat="43.92605" lon="5.21695">
        <ele>403.41</ele>
        <time>2021-03-22T08:40:34Z</time>
      </trkpt>
      <trkpt lat="43.92599" lon="5.21701">
        <ele>401.97</ele>
        <time>2021-03-22T08:40:41Z</time>
      </trkpt>
      <trkpt lat="43.9258" lon="5.2172">
        <ele>399.57</ele>
        <time>2021-03-22T08:41:02Z</time>
      </trkpt>
      <trkpt lat="43.92571" lon="5.21734">
        <ele>398.12</ele>
        <time>2021-03-22T08:41:19Z</time>
      </trkpt>
      <trkpt lat="43.92564" lon="5.2175">
        <ele>395.24</ele>
        <time>2021-03-22T08:41:36Z</time>
      </trkpt>
      <trkpt lat="43.92564" lon="5.2175">
        <ele>393.8</ele>
        <time>2021-03-22T08:41:39Z</time>
      </trkpt>
      <trkpt lat="43.92559" lon="5.21767">
        <ele>394.28</ele>
        <time>2021-03-22T08:41:56Z</time>
      </trkpt>
      <trkpt lat="43.92555" lon="5.21772">
        <ele>391.39</ele>
        <time>2021-03-22T08:42:07Z</time>
      </trkpt>
      <trkpt lat="43.92551" lon="5.21775">
        <ele>394.28</ele>
        <time>2021-03-22T08:42:13Z</time>
      </trkpt>
      <trkpt lat="43.92541" lon="5.21784">
        <ele>391.39</ele>
        <time>2021-03-22T08:42:27Z</time>
      </trkpt>
      <trkpt lat="43.9253" lon="5.21798">
        <ele>388.51</ele>
        <time>2021-03-22T08:42:43Z</time>
      </trkpt>
      <trkpt lat="43.92528" lon="5.21801">
        <ele>387.55</ele>
        <time>2021-03-22T08:43:01Z</time>
      </trkpt>
      <trkpt lat="43.92522" lon="5.21826">
        <ele>384.18</ele>
        <time>2021-03-22T08:43:25Z</time>
      </trkpt>
      <trkpt lat="43.92519" lon="5.21848">
        <ele>381.3</ele>
        <time>2021-03-22T08:43:44Z</time>
      </trkpt>
      <trkpt lat="43.92512" lon="5.21868">
        <ele>378.42</ele>
        <time>2021-03-22T08:44:02Z</time>
      </trkpt>
      <trkpt lat="43.9251" lon="5.21889">
        <ele>375.53</ele>
        <time>2021-03-22T08:44:19Z</time>
      </trkpt>
      <trkpt lat="43.92504" lon="5.21906">
        <ele>374.09</ele>
        <time>2021-03-22T08:44:37Z</time>
      </trkpt>
      <trkpt lat="43.92502" lon="5.2191">
        <ele>373.61</ele>
        <time>2021-03-22T08:44:40Z</time>
      </trkpt>
      <trkpt lat="43.92501" lon="5.21911">
        <ele>373.61</ele>
        <time>2021-03-22T08:44:41Z</time>
      </trkpt>
      <trkpt lat="43.92487" lon="5.21932">
        <ele>370.73</ele>
        <time>2021-03-22T08:44:59Z</time>
      </trkpt>
      <trkpt lat="43.92481" lon="5.21938">
        <ele>369.28</ele>
        <time>2021-03-22T08:45:16Z</time>
      </trkpt>
      <trkpt lat="43.92468" lon="5.21953">
        <ele>366.88</ele>
        <time>2021-03-22T08:45:36Z</time>
      </trkpt>
      <trkpt lat="43.92463" lon="5.21959">
        <ele>365.92</ele>
        <time>2021-03-22T08:45:44Z</time>
      </trkpt>
      <trkpt lat="43.9246" lon="5.21964">
        <ele>365.44</ele>
        <time>2021-03-22T08:45:50Z</time>
      </trkpt>
      <trkpt lat="43.92454" lon="5.21978">
        <ele>364</ele>
        <time>2021-03-22T08:46:03Z</time>
      </trkpt>
      <trkpt lat="43.92449" lon="5.21987">
        <ele>363.04</ele>
        <time>2021-03-22T08:46:14Z</time>
      </trkpt>
      <trkpt lat="43.92447" lon="5.21989">
        <ele>363.04</ele>
        <time>2021-03-22T08:46:16Z</time>
      </trkpt>
      <trkpt lat="43.92434" lon="5.22004">
        <ele>361.11</ele>
        <time>2021-03-22T08:46:34Z</time>
      </trkpt>
      <trkpt lat="43.92421" lon="5.22021">
        <ele>358.71</ele>
        <time>2021-03-22T08:46:52Z</time>
      </trkpt>
      <trkpt lat="43.92416" lon="5.2204">
        <ele>356.79</ele>
        <time>2021-03-22T08:47:09Z</time>
      </trkpt>
      <trkpt lat="43.92416" lon="5.22065">
        <ele>354.38</ele>
        <time>2021-03-22T08:47:27Z</time>
      </trkpt>
      <trkpt lat="43.92416" lon="5.2209">
        <ele>351.98</ele>
        <time>2021-03-22T08:47:48Z</time>
      </trkpt>
      <trkpt lat="43.92407" lon="5.22102">
        <ele>349.58</ele>
        <time>2021-03-22T08:48:02Z</time>
      </trkpt>
      <trkpt lat="43.92403" lon="5.22127">
        <ele>347.17</ele>
        <time>2021-03-22T08:48:22Z</time>
      </trkpt>
      <trkpt lat="43.92396" lon="5.22153">
        <ele>344.29</ele>
        <time>2021-03-22T08:48:46Z</time>
      </trkpt>
      <trkpt lat="43.92391" lon="5.22177">
        <ele>341.89</ele>
        <time>2021-03-22T08:49:04Z</time>
      </trkpt>
      <trkpt lat="43.92385" lon="5.22202">
        <ele>339</ele>
        <time>2021-03-22T08:49:22Z</time>
      </trkpt>
      <trkpt lat="43.92379" lon="5.22218">
        <ele>336.6</ele>
        <time>2021-03-22T08:49:35Z</time>
      </trkpt>
      <trkpt lat="43.92379" lon="5.22234">
        <ele>335.16</ele>
        <time>2021-03-22T08:49:49Z</time>
      </trkpt>
      <trkpt lat="43.92371" lon="5.22257">
        <ele>332.27</ele>
        <time>2021-03-22T08:50:06Z</time>
      </trkpt>
      <trkpt lat="43.92363" lon="5.22284">
        <ele>329.87</ele>
        <time>2021-03-22T08:50:25Z</time>
      </trkpt>
      <trkpt lat="43.92359" lon="5.22288">
        <ele>328.91</ele>
        <time>2021-03-22T08:50:29Z</time>
      </trkpt>
      <trkpt lat="43.92341" lon="5.22304">
        <ele>326.5</ele>
        <time>2021-03-22T08:50:48Z</time>
      </trkpt>
      <trkpt lat="43.9234" lon="5.22307">
        <ele>326.02</ele>
        <time>2021-03-22T08:50:50Z</time>
      </trkpt>
      <trkpt lat="43.92337" lon="5.22318">
        <ele>325.06</ele>
        <time>2021-03-22T08:50:59Z</time>
      </trkpt>
      <trkpt lat="43.92326" lon="5.22343">
        <ele>323.14</ele>
        <time>2021-03-22T08:51:17Z</time>
      </trkpt>
      <trkpt lat="43.92312" lon="5.22361">
        <ele>321.22</ele>
        <time>2021-03-22T08:51:34Z</time>
      </trkpt>
      <trkpt lat="43.92306" lon="5.22375">
        <ele>319.78</ele>
        <time>2021-03-22T08:51:45Z</time>
      </trkpt>
      <trkpt lat="43.92305" lon="5.22376">
        <ele>319.78</ele>
        <time>2021-03-22T08:51:46Z</time>
      </trkpt>
      <trkpt lat="43.92305" lon="5.22378">
        <ele>319.78</ele>
        <time>2021-03-22T08:51:47Z</time>
      </trkpt>
      <trkpt lat="43.92302" lon="5.22385">
        <ele>319.78</ele>
        <time>2021-03-22T08:51:52Z</time>
      </trkpt>
      <trkpt lat="43.92294" lon="5.22398">
        <ele>317.37</ele>
        <time>2021-03-22T08:52:06Z</time>
      </trkpt>
      <trkpt lat="43.92277" lon="5.22406">
        <ele>315.93</ele>
        <time>2021-03-22T08:52:23Z</time>
      </trkpt>
      <trkpt lat="43.92263" lon="5.22417">
        <ele>313.53</ele>
        <time>2021-03-22T08:52:38Z</time>
      </trkpt>
      <trkpt lat="43.92248" lon="5.22427">
        <ele>310.64</ele>
        <time>2021-03-22T08:52:55Z</time>
      </trkpt>
      <trkpt lat="43.92233" lon="5.2244">
        <ele>307.76</ele>
        <time>2021-03-22T08:53:13Z</time>
      </trkpt>
      <trkpt lat="43.92232" lon="5.22441">
        <ele>307.76</ele>
        <time>2021-03-22T08:53:14Z</time>
      </trkpt>
      <trkpt lat="43.92216" lon="5.22441">
        <ele>304.39</ele>
        <time>2021-03-22T08:53:29Z</time>
      </trkpt>
      <trkpt lat="43.92199" lon="5.22445">
        <ele>301.99</ele>
        <time>2021-03-22T08:53:48Z</time>
      </trkpt>
      <trkpt lat="43.92191" lon="5.22451">
        <ele>301.03</ele>
        <time>2021-03-22T08:53:56Z</time>
      </trkpt>
      <trkpt lat="43.92179" lon="5.22463">
        <ele>298.15</ele>
        <time>2021-03-22T08:54:13Z</time>
      </trkpt>
      <trkpt lat="43.92176" lon="5.22469">
        <ele>297.18</ele>
        <time>2021-03-22T08:54:18Z</time>
      </trkpt>
      <trkpt lat="43.92175" lon="5.2247">
        <ele>297.18</ele>
        <time>2021-03-22T08:54:19Z</time>
      </trkpt>
      <trkpt lat="43.9217" lon="5.22474">
        <ele>294.78</ele>
        <time>2021-03-22T08:54:38Z</time>
      </trkpt>
      <trkpt lat="43.9217" lon="5.22474">
        <ele>294.78</ele>
        <time>2021-03-22T08:55:31Z</time>
      </trkpt>
      <trkpt lat="43.92169" lon="5.22474">
        <ele>297.18</ele>
        <time>2021-03-22T08:55:44Z</time>
      </trkpt>
      <trkpt lat="43.92168" lon="5.22475">
        <ele>295.26</ele>
        <time>2021-03-22T08:56:15Z</time>
      </trkpt>
      <trkpt lat="43.92169" lon="5.22473">
        <ele>295.26</ele>
        <time>2021-03-22T08:56:53Z</time>
      </trkpt>
      <trkpt lat="43.92161" lon="5.22477">
        <ele>294.3</ele>
        <time>2021-03-22T08:57:19Z</time>
      </trkpt>
      <trkpt lat="43.92142" lon="5.22491">
        <ele>291.42</ele>
        <time>2021-03-22T08:57:39Z</time>
      </trkpt>
      <trkpt lat="43.92125" lon="5.22503">
        <ele>289.01</ele>
        <time>2021-03-22T08:57:57Z</time>
      </trkpt>
      <trkpt lat="43.92109" lon="5.22514">
        <ele>286.61</ele>
        <time>2021-03-22T08:58:15Z</time>
      </trkpt>
      <trkpt lat="43.92095" lon="5.22527">
        <ele>284.21</ele>
        <time>2021-03-22T08:58:33Z</time>
      </trkpt>
      <trkpt lat="43.92082" lon="5.22539">
        <ele>282.28</ele>
        <time>2021-03-22T08:58:48Z</time>
      </trkpt>
      <trkpt lat="43.92065" lon="5.22551">
        <ele>279.4</ele>
        <time>2021-03-22T08:59:06Z</time>
      </trkpt>
      <trkpt lat="43.92046" lon="5.22562">
        <ele>277</ele>
        <time>2021-03-22T08:59:25Z</time>
      </trkpt>
      <trkpt lat="43.92032" lon="5.22573">
        <ele>274.11</ele>
        <time>2021-03-22T08:59:40Z</time>
      </trkpt>
      <trkpt lat="43.92021" lon="5.22583">
        <ele>271.23</ele>
        <time>2021-03-22T08:59:56Z</time>
      </trkpt>
      <trkpt lat="43.92" lon="5.22593">
        <ele>268.83</ele>
        <time>2021-03-22T09:00:17Z</time>
      </trkpt>
      <trkpt lat="43.91984" lon="5.22607">
        <ele>265.94</ele>
        <time>2021-03-22T09:00:34Z</time>
      </trkpt>
      <trkpt lat="43.91969" lon="5.22621">
        <ele>264.02</ele>
        <time>2021-03-22T09:00:51Z</time>
      </trkpt>
      <trkpt lat="43.91952" lon="5.22628">
        <ele>261.62</ele>
        <time>2021-03-22T09:01:08Z</time>
      </trkpt>
      <trkpt lat="43.91934" lon="5.22642">
        <ele>258.73</ele>
        <time>2021-03-22T09:01:26Z</time>
      </trkpt>
      <trkpt lat="43.91921" lon="5.22652">
        <ele>256.33</ele>
        <time>2021-03-22T09:01:43Z</time>
      </trkpt>
      <trkpt lat="43.91906" lon="5.22667">
        <ele>253.44</ele>
        <time>2021-03-22T09:02:06Z</time>
      </trkpt>
      <trkpt lat="43.91885" lon="5.22678">
        <ele>250.56</ele>
        <time>2021-03-22T09:02:26Z</time>
      </trkpt>
      <trkpt lat="43.91882" lon="5.22693">
        <ele>248.64</ele>
        <time>2021-03-22T09:02:43Z</time>
      </trkpt>
      <trkpt lat="43.91882" lon="5.22695">
        <ele>248.16</ele>
        <time>2021-03-22T09:03:03Z</time>
      </trkpt>
      <trkpt lat="43.91883" lon="5.22695">
        <ele>248.16</ele>
        <time>2021-03-22T09:03:28Z</time>
      </trkpt>
      <trkpt lat="43.91883" lon="5.22695">
        <ele>247.2</ele>
        <time>2021-03-22T09:03:59Z</time>
      </trkpt>
      <trkpt lat="43.91892" lon="5.22696">
        <ele>247.2</ele>
        <time>2021-03-22T09:04:25Z</time>
      </trkpt>
      <trkpt lat="43.91892" lon="5.22698">
        <ele>246.72</ele>
        <time>2021-03-22T09:04:52Z</time>
      </trkpt>
      <trkpt lat="43.91894" lon="5.227">
        <ele>246.23</ele>
        <time>2021-03-22T09:05:17Z</time>
      </trkpt>
      <trkpt lat="43.91903" lon="5.22701">
        <ele>245.27</ele>
        <time>2021-03-22T09:05:26Z</time>
      </trkpt>
      <trkpt lat="43.91904" lon="5.22701">
        <ele>245.27</ele>
        <time>2021-03-22T09:05:27Z</time>
      </trkpt>
      <trkpt lat="43.91906" lon="5.22701">
        <ele>245.27</ele>
        <time>2021-03-22T09:05:28Z</time>
      </trkpt>
      <trkpt lat="43.91907" lon="5.22701">
        <ele>244.79</ele>
        <time>2021-03-22T09:05:29Z</time>
      </trkpt>
      <trkpt lat="43.91918" lon="5.22702">
        <ele>243.35</ele>
        <time>2021-03-22T09:05:38Z</time>
      </trkpt>
      <trkpt lat="43.91927" lon="5.22707">
        <ele>239.99</ele>
        <time>2021-03-22T09:05:54Z</time>
      </trkpt>
      <trkpt lat="43.91916" lon="5.22716">
        <ele>237.1</ele>
        <time>2021-03-22T09:06:11Z</time>
      </trkpt>
      <trkpt lat="43.91907" lon="5.2272">
        <ele>234.22</ele>
        <time>2021-03-22T09:06:24Z</time>
      </trkpt>
      <trkpt lat="43.91895" lon="5.22727">
        <ele>230.85</ele>
        <time>2021-03-22T09:06:39Z</time>
      </trkpt>
      <trkpt lat="43.91894" lon="5.22728">
        <ele>230.37</ele>
        <time>2021-03-22T09:06:40Z</time>
      </trkpt>
      <trkpt lat="43.91884" lon="5.22733">
        <ele>227.49</ele>
        <time>2021-03-22T09:06:53Z</time>
      </trkpt>
      <trkpt lat="43.91873" lon="5.22738">
        <ele>225.57</ele>
        <time>2021-03-22T09:07:13Z</time>
      </trkpt>
      <trkpt lat="43.91885" lon="5.22751">
        <ele>223.16</ele>
        <time>2021-03-22T09:07:33Z</time>
      </trkpt>
      <trkpt lat="43.91895" lon="5.22758">
        <ele>220.28</ele>
        <time>2021-03-22T09:07:46Z</time>
      </trkpt>
      <trkpt lat="43.91898" lon="5.2276">
        <ele>219.32</ele>
        <time>2021-03-22T09:07:51Z</time>
      </trkpt>
      <trkpt lat="43.91899" lon="5.22761">
        <ele>219.32</ele>
        <time>2021-03-22T09:07:52Z</time>
      </trkpt>
      <trkpt lat="43.91911" lon="5.22763">
        <ele>216.43</ele>
        <time>2021-03-22T09:08:21Z</time>
      </trkpt>
      <trkpt lat="43.91916" lon="5.22764">
        <ele>214.51</ele>
        <time>2021-03-22T09:08:29Z</time>
      </trkpt>
      <trkpt lat="43.91922" lon="5.2277">
        <ele>214.51</ele>
        <time>2021-03-22T09:08:46Z</time>
      </trkpt>
      <trkpt lat="43.91926" lon="5.2278">
        <ele>214.03</ele>
        <time>2021-03-22T09:10:05Z</time>
      </trkpt>
      <trkpt lat="43.91934" lon="5.22782">
        <ele>213.07</ele>
        <time>2021-03-22T09:10:39Z</time>
      </trkpt>
      <trkpt lat="43.91931" lon="5.2278">
        <ele>213.55</ele>
        <time>2021-03-22T09:10:43Z</time>
      </trkpt>
      <trkpt lat="43.91922" lon="5.22771">
        <ele>214.03</ele>
        <time>2021-03-22T09:11:11Z</time>
      </trkpt>
      <trkpt lat="43.91917" lon="5.22762">
        <ele>214.03</ele>
        <time>2021-03-22T09:11:50Z</time>
      </trkpt>
      <trkpt lat="43.91917" lon="5.22766">
        <ele>214.03</ele>
        <time>2021-03-22T09:12:03Z</time>
      </trkpt>
      <trkpt lat="43.91923" lon="5.22762">
        <ele>214.03</ele>
        <time>2021-03-22T09:12:18Z</time>
      </trkpt>
      <trkpt lat="43.91928" lon="5.22767">
        <ele>214.03</ele>
        <time>2021-03-22T09:12:26Z</time>
      </trkpt>
      <trkpt lat="43.91932" lon="5.2277">
        <ele>214.03</ele>
        <time>2021-03-22T09:12:37Z</time>
      </trkpt>
      <trkpt lat="43.91935" lon="5.22765">
        <ele>216.43</ele>
        <time>2021-03-22T09:12:58Z</time>
      </trkpt>
      <trkpt lat="43.91934" lon="5.22764">
        <ele>218.84</ele>
        <time>2021-03-22T09:13:02Z</time>
      </trkpt>
      <trkpt lat="43.91936" lon="5.22768">
        <ele>219.32</ele>
        <time>2021-03-22T09:13:49Z</time>
      </trkpt>
      <trkpt lat="43.91943" lon="5.22763">
        <ele>219.8</ele>
        <time>2021-03-22T09:14:13Z</time>
      </trkpt>
      <trkpt lat="43.91952" lon="5.2276">
        <ele>220.76</ele>
        <time>2021-03-22T09:14:27Z</time>
      </trkpt>
      <trkpt lat="43.9196" lon="5.2276">
        <ele>222.2</ele>
        <time>2021-03-22T09:14:40Z</time>
      </trkpt>
      <trkpt lat="43.91965" lon="5.22755">
        <ele>223.16</ele>
        <time>2021-03-22T09:14:47Z</time>
      </trkpt>
      <trkpt lat="43.91977" lon="5.22737">
        <ele>224.12</ele>
        <time>2021-03-22T09:15:10Z</time>
      </trkpt>
      <trkpt lat="43.9198" lon="5.22731">
        <ele>225.09</ele>
        <time>2021-03-22T09:15:16Z</time>
      </trkpt>
      <trkpt lat="43.91977" lon="5.22729">
        <ele>225.09</ele>
        <time>2021-03-22T09:15:31Z</time>
      </trkpt>
      <trkpt lat="43.91982" lon="5.22725">
        <ele>225.09</ele>
        <time>2021-03-22T09:15:46Z</time>
      </trkpt>
      <trkpt lat="43.91982" lon="5.22727">
        <ele>224.61</ele>
        <time>2021-03-22T09:16:11Z</time>
      </trkpt>
      <trkpt lat="43.91988" lon="5.22721">
        <ele>224.61</ele>
        <time>2021-03-22T09:16:45Z</time>
      </trkpt>
      <trkpt lat="43.91981" lon="5.22717">
        <ele>224.61</ele>
        <time>2021-03-22T09:17:15Z</time>
      </trkpt>
      <trkpt lat="43.91976" lon="5.22718">
        <ele>224.61</ele>
        <time>2021-03-22T09:17:45Z</time>
      </trkpt>
      <trkpt lat="43.91979" lon="5.22721">
        <ele>224.61</ele>
        <time>2021-03-22T09:18:05Z</time>
      </trkpt>
      <trkpt lat="43.91982" lon="5.22722">
        <ele>225.09</ele>
        <time>2021-03-22T09:18:29Z</time>
      </trkpt>
      <trkpt lat="43.91986" lon="5.2272">
        <ele>225.09</ele>
        <time>2021-03-22T09:19:01Z</time>
      </trkpt>
      <trkpt lat="43.91988" lon="5.22722">
        <ele>225.09</ele>
        <time>2021-03-22T09:19:27Z</time>
      </trkpt>
      <trkpt lat="43.91984" lon="5.22721">
        <ele>225.09</ele>
        <time>2021-03-22T09:20:09Z</time>
      </trkpt>
      <trkpt lat="43.91983" lon="5.22725">
        <ele>225.09</ele>
        <time>2021-03-22T09:20:35Z</time>
      </trkpt>
      <trkpt lat="43.91983" lon="5.22724">
        <ele>225.09</ele>
        <time>2021-03-22T09:20:41Z</time>
      </trkpt>
      <trkpt lat="43.91985" lon="5.22705">
        <ele>224.61</ele>
        <time>2021-03-22T09:21:11Z</time>
      </trkpt>
      <trkpt lat="43.91984" lon="5.22709">
        <ele>224.61</ele>
        <time>2021-03-22T09:21:35Z</time>
      </trkpt>
      <trkpt lat="43.9198" lon="5.22708">
        <ele>224.61</ele>
        <time>2021-03-22T09:22:03Z</time>
      </trkpt>
      <trkpt lat="43.91981" lon="5.22715">
        <ele>224.61</ele>
        <time>2021-03-22T09:22:32Z</time>
      </trkpt>
      <trkpt lat="43.91979" lon="5.22715">
        <ele>224.61</ele>
        <time>2021-03-22T09:23:09Z</time>
      </trkpt>
      <trkpt lat="43.91981" lon="5.22713">
        <ele>224.61</ele>
        <time>2021-03-22T09:23:39Z</time>
      </trkpt>
      <trkpt lat="43.91981" lon="5.22707">
        <ele>224.61</ele>
        <time>2021-03-22T09:24:11Z</time>
      </trkpt>
      <trkpt lat="43.9198" lon="5.22707">
        <ele>224.61</ele>
        <time>2021-03-22T09:24:43Z</time>
      </trkpt>
      <trkpt lat="43.91981" lon="5.22719">
        <ele>224.61</ele>
        <time>2021-03-22T09:25:13Z</time>
      </trkpt>
      <trkpt lat="43.9198" lon="5.22721">
        <ele>224.61</ele>
        <time>2021-03-22T09:25:37Z</time>
      </trkpt>
      <trkpt lat="43.91978" lon="5.22717">
        <ele>224.61</ele>
        <time>2021-03-22T09:26:09Z</time>
      </trkpt>
      <trkpt lat="43.91977" lon="5.22721">
        <ele>224.61</ele>
        <time>2021-03-22T09:26:41Z</time>
      </trkpt>
      <trkpt lat="43.91977" lon="5.22721">
        <ele>224.61</ele>
        <time>2021-03-22T09:27:19Z</time>
      </trkpt>
      <trkpt lat="43.9198" lon="5.22713">
        <ele>225.09</ele>
        <time>2021-03-22T09:27:47Z</time>
      </trkpt>
      <trkpt lat="43.91979" lon="5.22711">
        <ele>225.09</ele>
        <time>2021-03-22T09:27:51Z</time>
      </trkpt>
      <trkpt lat="43.91977" lon="5.22715">
        <ele>224.61</ele>
        <time>2021-03-22T09:28:14Z</time>
      </trkpt>
      <trkpt lat="43.91977" lon="5.22715">
        <ele>224.61</ele>
        <time>2021-03-22T09:28:17Z</time>
      </trkpt>
      <trkpt lat="43.91981" lon="5.2272">
        <ele>225.09</ele>
        <time>2021-03-22T09:28:23Z</time>
      </trkpt>
      <trkpt lat="43.91985" lon="5.22721">
        <ele>225.09</ele>
        <time>2021-03-22T09:28:27Z</time>
      </trkpt>
      <trkpt lat="43.91996" lon="5.22717">
        <ele>226.53</ele>
        <time>2021-03-22T09:28:37Z</time>
      </trkpt>
      <trkpt lat="43.92" lon="5.22716">
        <ele>227.01</ele>
        <time>2021-03-22T09:28:40Z</time>
      </trkpt>
      <trkpt lat="43.92002" lon="5.22716">
        <ele>227.01</ele>
        <time>2021-03-22T09:28:42Z</time>
      </trkpt>
      <trkpt lat="43.92007" lon="5.22715">
        <ele>227.01</ele>
        <time>2021-03-22T09:28:47Z</time>
      </trkpt>
      <trkpt lat="43.92013" lon="5.22714">
        <ele>227.01</ele>
        <time>2021-03-22T09:28:52Z</time>
      </trkpt>
      <trkpt lat="43.92017" lon="5.22711">
        <ele>227.49</ele>
        <time>2021-03-22T09:28:56Z</time>
      </trkpt>
      <trkpt lat="43.92022" lon="5.2271">
        <ele>227.97</ele>
        <time>2021-03-22T09:29:01Z</time>
      </trkpt>
      <trkpt lat="43.92025" lon="5.22709">
        <ele>227.97</ele>
        <time>2021-03-22T09:29:04Z</time>
      </trkpt>
      <trkpt lat="43.92028" lon="5.22709">
        <ele>228.45</ele>
        <time>2021-03-22T09:29:06Z</time>
      </trkpt>
      <trkpt lat="43.92033" lon="5.2271">
        <ele>228.45</ele>
        <time>2021-03-22T09:29:10Z</time>
      </trkpt>
      <trkpt lat="43.92044" lon="5.22708">
        <ele>229.41</ele>
        <time>2021-03-22T09:29:23Z</time>
      </trkpt>
      <trkpt lat="43.92046" lon="5.22706">
        <ele>230.37</ele>
        <time>2021-03-22T09:29:25Z</time>
      </trkpt>
      <trkpt lat="43.92047" lon="5.22704">
        <ele>230.37</ele>
        <time>2021-03-22T09:29:26Z</time>
      </trkpt>
      <trkpt lat="43.9205" lon="5.22703">
        <ele>229.89</ele>
        <time>2021-03-22T09:29:29Z</time>
      </trkpt>
      <trkpt lat="43.92052" lon="5.22701">
        <ele>229.89</ele>
        <time>2021-03-22T09:29:31Z</time>
      </trkpt>
      <trkpt lat="43.92053" lon="5.227">
        <ele>229.41</ele>
        <time>2021-03-22T09:29:32Z</time>
      </trkpt>
      <trkpt lat="43.92057" lon="5.22699">
        <ele>229.41</ele>
        <time>2021-03-22T09:29:35Z</time>
      </trkpt>
      <trkpt lat="43.9206" lon="5.227">
        <ele>229.41</ele>
        <time>2021-03-22T09:29:38Z</time>
      </trkpt>
      <trkpt lat="43.92062" lon="5.22702">
        <ele>229.41</ele>
        <time>2021-03-22T09:29:40Z</time>
      </trkpt>
      <trkpt lat="43.92065" lon="5.22693">
        <ele>229.41</ele>
        <time>2021-03-22T09:29:49Z</time>
      </trkpt>
      <trkpt lat="43.92065" lon="5.22688">
        <ele>232.78</ele>
        <time>2021-03-22T09:30:04Z</time>
      </trkpt>
      <trkpt lat="43.92068" lon="5.22686">
        <ele>234.22</ele>
        <time>2021-03-22T09:30:24Z</time>
      </trkpt>
      <trkpt lat="43.9207" lon="5.22686">
        <ele>236.14</ele>
        <time>2021-03-22T09:30:28Z</time>
      </trkpt>
      <trkpt lat="43.92076" lon="5.22696">
        <ele>235.66</ele>
        <time>2021-03-22T09:30:51Z</time>
      </trkpt>
      <trkpt lat="43.92077" lon="5.22697">
        <ele>235.66</ele>
        <time>2021-03-22T09:30:52Z</time>
      </trkpt>
      <trkpt lat="43.92095" lon="5.22697">
        <ele>237.58</ele>
        <time>2021-03-22T09:31:10Z</time>
      </trkpt>
      <trkpt lat="43.92076" lon="5.22675">
        <ele>238.06</ele>
        <time>2021-03-22T09:31:32Z</time>
      </trkpt>
      <trkpt lat="43.92066" lon="5.22672">
        <ele>238.06</ele>
        <time>2021-03-22T09:31:58Z</time>
      </trkpt>
      <trkpt lat="43.9206" lon="5.22676">
        <ele>238.06</ele>
        <time>2021-03-22T09:32:28Z</time>
      </trkpt>
      <trkpt lat="43.92068" lon="5.22675">
        <ele>238.06</ele>
        <time>2021-03-22T09:33:29Z</time>
      </trkpt>
      <trkpt lat="43.92065" lon="5.2268">
        <ele>237.58</ele>
        <time>2021-03-22T09:34:08Z</time>
      </trkpt>
      <trkpt lat="43.92068" lon="5.22663">
        <ele>237.58</ele>
        <time>2021-03-22T09:34:42Z</time>
      </trkpt>
      <trkpt lat="43.92083" lon="5.22652">
        <ele>237.58</ele>
        <time>2021-03-22T09:34:57Z</time>
      </trkpt>
      <trkpt lat="43.92085" lon="5.2265">
        <ele>237.58</ele>
        <time>2021-03-22T09:34:59Z</time>
      </trkpt>
      <trkpt lat="43.9209" lon="5.22649">
        <ele>238.06</ele>
        <time>2021-03-22T09:35:05Z</time>
      </trkpt>
      <trkpt lat="43.92091" lon="5.22649">
        <ele>238.06</ele>
        <time>2021-03-22T09:35:06Z</time>
      </trkpt>
      <trkpt lat="43.92107" lon="5.22644">
        <ele>238.54</ele>
        <time>2021-03-22T09:35:19Z</time>
      </trkpt>
      <trkpt lat="43.92112" lon="5.22643">
        <ele>237.58</ele>
        <time>2021-03-22T09:35:29Z</time>
      </trkpt>
      <trkpt lat="43.92119" lon="5.22633">
        <ele>238.54</ele>
        <time>2021-03-22T09:35:47Z</time>
      </trkpt>
      <trkpt lat="43.92134" lon="5.22621">
        <ele>239.51</ele>
        <time>2021-03-22T09:35:55Z</time>
      </trkpt>
      <trkpt lat="43.92139" lon="5.22611">
        <ele>239.99</ele>
        <time>2021-03-22T09:36:05Z</time>
      </trkpt>
      <trkpt lat="43.92144" lon="5.22612">
        <ele>240.47</ele>
        <time>2021-03-22T09:36:14Z</time>
      </trkpt>
      <trkpt lat="43.92156" lon="5.22598">
        <ele>241.43</ele>
        <time>2021-03-22T09:36:29Z</time>
      </trkpt>
      <trkpt lat="43.92157" lon="5.22596">
        <ele>241.43</ele>
        <time>2021-03-22T09:36:31Z</time>
      </trkpt>
      <trkpt lat="43.92171" lon="5.22584">
        <ele>242.39</ele>
        <time>2021-03-22T09:36:54Z</time>
      </trkpt>
      <trkpt lat="43.92176" lon="5.22582">
        <ele>242.87</ele>
        <time>2021-03-22T09:36:58Z</time>
      </trkpt>
      <trkpt lat="43.9219" lon="5.22572">
        <ele>243.35</ele>
        <time>2021-03-22T09:37:18Z</time>
      </trkpt>
      <trkpt lat="43.92211" lon="5.22572">
        <ele>243.83</ele>
        <time>2021-03-22T09:37:49Z</time>
      </trkpt>
      <trkpt lat="43.92212" lon="5.22573">
        <ele>243.83</ele>
        <time>2021-03-22T09:37:50Z</time>
      </trkpt>
      <trkpt lat="43.92214" lon="5.22574">
        <ele>243.35</ele>
        <time>2021-03-22T09:37:52Z</time>
      </trkpt>
      <trkpt lat="43.92218" lon="5.22572">
        <ele>243.35</ele>
        <time>2021-03-22T09:38:00Z</time>
      </trkpt>
      <trkpt lat="43.92224" lon="5.22566">
        <ele>243.83</ele>
        <time>2021-03-22T09:38:21Z</time>
      </trkpt>
      <trkpt lat="43.92224" lon="5.22556">
        <ele>245.27</ele>
        <time>2021-03-22T09:38:34Z</time>
      </trkpt>
      <trkpt lat="43.92224" lon="5.22555">
        <ele>245.75</ele>
        <time>2021-03-22T09:38:35Z</time>
      </trkpt>
      <trkpt lat="43.92219" lon="5.2254">
        <ele>248.64</ele>
        <time>2021-03-22T09:39:01Z</time>
      </trkpt>
      <trkpt lat="43.92223" lon="5.22544">
        <ele>248.16</ele>
        <time>2021-03-22T09:39:27Z</time>
      </trkpt>
      <trkpt lat="43.92228" lon="5.22538">
        <ele>248.64</ele>
        <time>2021-03-22T09:40:06Z</time>
      </trkpt>
      <trkpt lat="43.92239" lon="5.22533">
        <ele>249.6</ele>
        <time>2021-03-22T09:40:27Z</time>
      </trkpt>
      <trkpt lat="43.92241" lon="5.22526">
        <ele>249.6</ele>
        <time>2021-03-22T09:40:49Z</time>
      </trkpt>
      <trkpt lat="43.92236" lon="5.2253">
        <ele>248.64</ele>
        <time>2021-03-22T09:41:22Z</time>
      </trkpt>
      <trkpt lat="43.92237" lon="5.22531">
        <ele>246.23</ele>
        <time>2021-03-22T09:42:16Z</time>
      </trkpt>
      <trkpt lat="43.92234" lon="5.22525">
        <ele>245.75</ele>
        <time>2021-03-22T09:42:36Z</time>
      </trkpt>
      <trkpt lat="43.92232" lon="5.2252">
        <ele>246.23</ele>
        <time>2021-03-22T09:42:48Z</time>
      </trkpt>
      <trkpt lat="43.92233" lon="5.22515">
        <ele>245.75</ele>
        <time>2021-03-22T09:42:56Z</time>
      </trkpt>
      <trkpt lat="43.92239" lon="5.22523">
        <ele>246.23</ele>
        <time>2021-03-22T09:43:27Z</time>
      </trkpt>
      <trkpt lat="43.92235" lon="5.22528">
        <ele>246.23</ele>
        <time>2021-03-22T09:44:08Z</time>
      </trkpt>
      <trkpt lat="43.9224" lon="5.2253">
        <ele>246.23</ele>
        <time>2021-03-22T09:44:30Z</time>
      </trkpt>
      <trkpt lat="43.92247" lon="5.22526">
        <ele>246.23</ele>
        <time>2021-03-22T09:44:51Z</time>
      </trkpt>
      <trkpt lat="43.92249" lon="5.22525">
        <ele>246.23</ele>
        <time>2021-03-22T09:44:53Z</time>
      </trkpt>
      <trkpt lat="43.9225" lon="5.22524">
        <ele>246.23</ele>
        <time>2021-03-22T09:44:54Z</time>
      </trkpt>
      <trkpt lat="43.92267" lon="5.22524">
        <ele>247.2</ele>
        <time>2021-03-22T09:45:07Z</time>
      </trkpt>
      <trkpt lat="43.92279" lon="5.2253">
        <ele>247.68</ele>
        <time>2021-03-22T09:45:16Z</time>
      </trkpt>
      <trkpt lat="43.92285" lon="5.22534">
        <ele>248.16</ele>
        <time>2021-03-22T09:45:22Z</time>
      </trkpt>
      <trkpt lat="43.92286" lon="5.22537">
        <ele>248.16</ele>
        <time>2021-03-22T09:45:24Z</time>
      </trkpt>
      <trkpt lat="43.92292" lon="5.22538">
        <ele>250.56</ele>
        <time>2021-03-22T09:45:45Z</time>
      </trkpt>
      <trkpt lat="43.92298" lon="5.22539">
        <ele>251.04</ele>
        <time>2021-03-22T09:45:49Z</time>
      </trkpt>
      <trkpt lat="43.92299" lon="5.22538">
        <ele>251.04</ele>
        <time>2021-03-22T09:45:50Z</time>
      </trkpt>
      <trkpt lat="43.92309" lon="5.22543">
        <ele>253.44</ele>
        <time>2021-03-22T09:46:07Z</time>
      </trkpt>
      <trkpt lat="43.9231" lon="5.22542">
        <ele>253.44</ele>
        <time>2021-03-22T09:46:08Z</time>
      </trkpt>
      <trkpt lat="43.92313" lon="5.2254">
        <ele>253.93</ele>
        <time>2021-03-22T09:46:13Z</time>
      </trkpt>
      <trkpt lat="43.92311" lon="5.22545">
        <ele>255.37</ele>
        <time>2021-03-22T09:47:32Z</time>
      </trkpt>
      <trkpt lat="43.92316" lon="5.22548">
        <ele>255.37</ele>
        <time>2021-03-22T09:47:37Z</time>
      </trkpt>
      <trkpt lat="43.92321" lon="5.22552">
        <ele>256.33</ele>
        <time>2021-03-22T09:47:43Z</time>
      </trkpt>
      <trkpt lat="43.92324" lon="5.22551">
        <ele>256.33</ele>
        <time>2021-03-22T09:47:46Z</time>
      </trkpt>
      <trkpt lat="43.92336" lon="5.22545">
        <ele>257.29</ele>
        <time>2021-03-22T09:47:56Z</time>
      </trkpt>
      <trkpt lat="43.92338" lon="5.22544">
        <ele>257.29</ele>
        <time>2021-03-22T09:47:58Z</time>
      </trkpt>
      <trkpt lat="43.92339" lon="5.22543">
        <ele>257.29</ele>
        <time>2021-03-22T09:47:59Z</time>
      </trkpt>
      <trkpt lat="43.92353" lon="5.22527">
        <ele>258.25</ele>
        <time>2021-03-22T09:48:17Z</time>
      </trkpt>
      <trkpt lat="43.9236" lon="5.22528">
        <ele>260.17</ele>
        <time>2021-03-22T09:48:31Z</time>
      </trkpt>
      <trkpt lat="43.92366" lon="5.22532">
        <ele>261.14</ele>
        <time>2021-03-22T09:48:37Z</time>
      </trkpt>
      <trkpt lat="43.92367" lon="5.22533">
        <ele>261.14</ele>
        <time>2021-03-22T09:48:38Z</time>
      </trkpt>
      <trkpt lat="43.92369" lon="5.22532">
        <ele>261.14</ele>
        <time>2021-03-22T09:48:41Z</time>
      </trkpt>
      <trkpt lat="43.9237" lon="5.22527">
        <ele>261.62</ele>
        <time>2021-03-22T09:48:45Z</time>
      </trkpt>
      <trkpt lat="43.9237" lon="5.22503">
        <ele>262.1</ele>
        <time>2021-03-22T09:49:04Z</time>
      </trkpt>
      <trkpt lat="43.92374" lon="5.2249">
        <ele>262.58</ele>
        <time>2021-03-22T09:49:17Z</time>
      </trkpt>
      <trkpt lat="43.92378" lon="5.22486">
        <ele>263.06</ele>
        <time>2021-03-22T09:49:30Z</time>
      </trkpt>
      <trkpt lat="43.92379" lon="5.22483">
        <ele>263.54</ele>
        <time>2021-03-22T09:49:35Z</time>
      </trkpt>
      <trkpt lat="43.92377" lon="5.22475">
        <ele>266.42</ele>
        <time>2021-03-22T09:49:51Z</time>
      </trkpt>
      <trkpt lat="43.92379" lon="5.22465">
        <ele>267.86</ele>
        <time>2021-03-22T09:50:02Z</time>
      </trkpt>
      <trkpt lat="43.92381" lon="5.2246">
        <ele>268.83</ele>
        <time>2021-03-22T09:50:07Z</time>
      </trkpt>
      <trkpt lat="43.92382" lon="5.22457">
        <ele>268.83</ele>
        <time>2021-03-22T09:50:09Z</time>
      </trkpt>
      <trkpt lat="43.92383" lon="5.22454">
        <ele>268.83</ele>
        <time>2021-03-22T09:50:11Z</time>
      </trkpt>
      <trkpt lat="43.92384" lon="5.22453">
        <ele>269.31</ele>
        <time>2021-03-22T09:50:12Z</time>
      </trkpt>
      <trkpt lat="43.92391" lon="5.22437">
        <ele>269.79</ele>
        <time>2021-03-22T09:50:24Z</time>
      </trkpt>
      <trkpt lat="43.92392" lon="5.22425">
        <ele>271.23</ele>
        <time>2021-03-22T09:50:35Z</time>
      </trkpt>
      <trkpt lat="43.92386" lon="5.22414">
        <ele>271.71</ele>
        <time>2021-03-22T09:51:00Z</time>
      </trkpt>
      <trkpt lat="43.92381" lon="5.22412">
        <ele>271.71</ele>
        <time>2021-03-22T09:51:35Z</time>
      </trkpt>
      <trkpt lat="43.92385" lon="5.22409">
        <ele>270.27</ele>
        <time>2021-03-22T09:51:59Z</time>
      </trkpt>
      <trkpt lat="43.92387" lon="5.22405">
        <ele>267.38</ele>
        <time>2021-03-22T09:52:16Z</time>
      </trkpt>
      <trkpt lat="43.92393" lon="5.22403">
        <ele>270.27</ele>
        <time>2021-03-22T09:52:50Z</time>
      </trkpt>
      <trkpt lat="43.92394" lon="5.22405">
        <ele>271.71</ele>
        <time>2021-03-22T09:53:05Z</time>
      </trkpt>
      <trkpt lat="43.92386" lon="5.22403">
        <ele>271.71</ele>
        <time>2021-03-22T09:53:15Z</time>
      </trkpt>
      <trkpt lat="43.9239" lon="5.22406">
        <ele>273.63</ele>
        <time>2021-03-22T09:53:39Z</time>
      </trkpt>
      <trkpt lat="43.92391" lon="5.22404">
        <ele>273.63</ele>
        <time>2021-03-22T09:53:41Z</time>
      </trkpt>
      <trkpt lat="43.92392" lon="5.22403">
        <ele>273.63</ele>
        <time>2021-03-22T09:53:42Z</time>
      </trkpt>
      <trkpt lat="43.92396" lon="5.22388">
        <ele>274.59</ele>
        <time>2021-03-22T09:54:00Z</time>
      </trkpt>
      <trkpt lat="43.92396" lon="5.22383">
        <ele>274.11</ele>
        <time>2021-03-22T09:54:23Z</time>
      </trkpt>
      <trkpt lat="43.92397" lon="5.22381">
        <ele>273.63</ele>
        <time>2021-03-22T09:54:44Z</time>
      </trkpt>
      <trkpt lat="43.924" lon="5.22379">
        <ele>274.11</ele>
        <time>2021-03-22T09:55:10Z</time>
      </trkpt>
      <trkpt lat="43.92406" lon="5.22371">
        <ele>274.11</ele>
        <time>2021-03-22T09:55:34Z</time>
      </trkpt>
      <trkpt lat="43.92413" lon="5.22347">
        <ele>275.56</ele>
        <time>2021-03-22T09:55:53Z</time>
      </trkpt>
      <trkpt lat="43.92417" lon="5.22342">
        <ele>276.04</ele>
        <time>2021-03-22T09:55:59Z</time>
      </trkpt>
      <trkpt lat="43.92417" lon="5.2234">
        <ele>276.04</ele>
        <time>2021-03-22T09:56:01Z</time>
      </trkpt>
      <trkpt lat="43.92423" lon="5.22336">
        <ele>274.59</ele>
        <time>2021-03-22T09:56:19Z</time>
      </trkpt>
      <trkpt lat="43.92428" lon="5.22317">
        <ele>272.19</ele>
        <time>2021-03-22T09:56:49Z</time>
      </trkpt>
      <trkpt lat="43.92428" lon="5.22315">
        <ele>272.19</ele>
        <time>2021-03-22T09:56:50Z</time>
      </trkpt>
      <trkpt lat="43.92429" lon="5.22314">
        <ele>272.19</ele>
        <time>2021-03-22T09:56:51Z</time>
      </trkpt>
      <trkpt lat="43.9245" lon="5.22316">
        <ele>271.71</ele>
        <time>2021-03-22T09:57:47Z</time>
      </trkpt>
      <trkpt lat="43.92452" lon="5.22307">
        <ele>272.19</ele>
        <time>2021-03-22T09:57:55Z</time>
      </trkpt>
      <trkpt lat="43.92458" lon="5.22304">
        <ele>273.63</ele>
        <time>2021-03-22T09:58:15Z</time>
      </trkpt>
      <trkpt lat="43.92463" lon="5.22303">
        <ele>275.56</ele>
        <time>2021-03-22T09:58:24Z</time>
      </trkpt>
      <trkpt lat="43.92468" lon="5.22306">
        <ele>278.44</ele>
        <time>2021-03-22T09:58:44Z</time>
      </trkpt>
      <trkpt lat="43.92466" lon="5.22297">
        <ele>280.84</ele>
        <time>2021-03-22T09:59:05Z</time>
      </trkpt>
      <trkpt lat="43.92465" lon="5.22297">
        <ele>281.32</ele>
        <time>2021-03-22T09:59:06Z</time>
      </trkpt>
      <trkpt lat="43.92457" lon="5.22296">
        <ele>282.77</ele>
        <time>2021-03-22T09:59:23Z</time>
      </trkpt>
      <trkpt lat="43.92454" lon="5.22321">
        <ele>280.36</ele>
        <time>2021-03-22T10:00:18Z</time>
      </trkpt>
      <trkpt lat="43.92449" lon="5.22322">
        <ele>281.8</ele>
        <time>2021-03-22T10:01:00Z</time>
      </trkpt>
      <trkpt lat="43.92452" lon="5.2232">
        <ele>281.8</ele>
        <time>2021-03-22T10:01:02Z</time>
      </trkpt>
      <trkpt lat="43.92453" lon="5.22313">
        <ele>283.25</ele>
        <time>2021-03-22T10:01:11Z</time>
      </trkpt>
      <trkpt lat="43.92453" lon="5.22305">
        <ele>283.25</ele>
        <time>2021-03-22T10:01:26Z</time>
      </trkpt>
      <trkpt lat="43.92453" lon="5.22297">
        <ele>283.73</ele>
        <time>2021-03-22T10:01:32Z</time>
      </trkpt>
      <trkpt lat="43.92454" lon="5.22296">
        <ele>283.25</ele>
        <time>2021-03-22T10:01:33Z</time>
      </trkpt>
      <trkpt lat="43.92454" lon="5.22292">
        <ele>283.25</ele>
        <time>2021-03-22T10:01:36Z</time>
      </trkpt>
      <trkpt lat="43.92455" lon="5.22283">
        <ele>282.77</ele>
        <time>2021-03-22T10:01:43Z</time>
      </trkpt>
      <trkpt lat="43.92455" lon="5.22279">
        <ele>282.28</ele>
        <time>2021-03-22T10:01:47Z</time>
      </trkpt>
      <trkpt lat="43.92454" lon="5.2227">
        <ele>281.32</ele>
        <time>2021-03-22T10:02:03Z</time>
      </trkpt>
      <trkpt lat="43.92451" lon="5.22266">
        <ele>281.8</ele>
        <time>2021-03-22T10:02:13Z</time>
      </trkpt>
      <trkpt lat="43.92449" lon="5.22257">
        <ele>285.17</ele>
        <time>2021-03-22T10:02:27Z</time>
      </trkpt>
      <trkpt lat="43.92447" lon="5.22239">
        <ele>286.61</ele>
        <time>2021-03-22T10:02:39Z</time>
      </trkpt>
      <trkpt lat="43.92447" lon="5.22243">
        <ele>289.01</ele>
        <time>2021-03-22T10:02:57Z</time>
      </trkpt>
      <trkpt lat="43.92431" lon="5.22249">
        <ele>289.49</ele>
        <time>2021-03-22T10:03:16Z</time>
      </trkpt>
      <trkpt lat="43.92428" lon="5.22256">
        <ele>289.49</ele>
        <time>2021-03-22T10:03:21Z</time>
      </trkpt>
      <trkpt lat="43.92425" lon="5.22241">
        <ele>289.97</ele>
        <time>2021-03-22T10:03:52Z</time>
      </trkpt>
      <trkpt lat="43.92426" lon="5.2224">
        <ele>289.97</ele>
        <time>2021-03-22T10:03:53Z</time>
      </trkpt>
      <trkpt lat="43.92427" lon="5.2224">
        <ele>289.97</ele>
        <time>2021-03-22T10:03:54Z</time>
      </trkpt>
      <trkpt lat="43.92426" lon="5.22238">
        <ele>289.01</ele>
        <time>2021-03-22T10:04:52Z</time>
      </trkpt>
      <trkpt lat="43.92428" lon="5.22216">
        <ele>289.49</ele>
        <time>2021-03-22T10:06:06Z</time>
      </trkpt>
      <trkpt lat="43.92429" lon="5.22219">
        <ele>289.49</ele>
        <time>2021-03-22T10:06:17Z</time>
      </trkpt>
      <trkpt lat="43.92427" lon="5.22233">
        <ele>289.49</ele>
        <time>2021-03-22T10:07:07Z</time>
      </trkpt>
      <trkpt lat="43.92428" lon="5.22233">
        <ele>289.49</ele>
        <time>2021-03-22T10:07:08Z</time>
      </trkpt>
      <trkpt lat="43.92441" lon="5.22248">
        <ele>292.38</ele>
        <time>2021-03-22T10:07:29Z</time>
      </trkpt>
      <trkpt lat="43.92441" lon="5.22254">
        <ele>293.34</ele>
        <time>2021-03-22T10:07:35Z</time>
      </trkpt>
      <trkpt lat="43.92451" lon="5.22257">
        <ele>293.34</ele>
        <time>2021-03-22T10:07:54Z</time>
      </trkpt>
      <trkpt lat="43.92454" lon="5.22258">
        <ele>293.34</ele>
        <time>2021-03-22T10:07:58Z</time>
      </trkpt>
      <trkpt lat="43.92456" lon="5.22258">
        <ele>293.34</ele>
        <time>2021-03-22T10:08:00Z</time>
      </trkpt>
      <trkpt lat="43.92466" lon="5.22248">
        <ele>296.22</ele>
        <time>2021-03-22T10:08:18Z</time>
      </trkpt>
      <trkpt lat="43.92479" lon="5.22245">
        <ele>299.11</ele>
        <time>2021-03-22T10:08:39Z</time>
      </trkpt>
      <trkpt lat="43.92496" lon="5.22223">
        <ele>301.51</ele>
        <time>2021-03-22T10:08:52Z</time>
      </trkpt>
      <trkpt lat="43.92515" lon="5.22204">
        <ele>304.39</ele>
        <time>2021-03-22T10:09:13Z</time>
      </trkpt>
      <trkpt lat="43.9252" lon="5.22206">
        <ele>306.8</ele>
        <time>2021-03-22T10:09:33Z</time>
      </trkpt>
      <trkpt lat="43.92523" lon="5.22209">
        <ele>306.32</ele>
        <time>2021-03-22T10:10:01Z</time>
      </trkpt>
      <trkpt lat="43.92524" lon="5.22206">
        <ele>305.84</ele>
        <time>2021-03-22T10:10:29Z</time>
      </trkpt>
      <trkpt lat="43.92523" lon="5.22207">
        <ele>305.84</ele>
        <time>2021-03-22T10:10:59Z</time>
      </trkpt>
      <trkpt lat="43.92523" lon="5.22211">
        <ele>305.84</ele>
        <time>2021-03-22T10:11:19Z</time>
      </trkpt>
      <trkpt lat="43.92526" lon="5.22207">
        <ele>306.32</ele>
        <time>2021-03-22T10:11:42Z</time>
      </trkpt>
      <trkpt lat="43.92536" lon="5.22201">
        <ele>305.84</ele>
        <time>2021-03-22T10:11:57Z</time>
      </trkpt>
      <trkpt lat="43.92539" lon="5.22202">
        <ele>304.39</ele>
        <time>2021-03-22T10:12:08Z</time>
      </trkpt>
      <trkpt lat="43.92541" lon="5.22213">
        <ele>303.43</ele>
        <time>2021-03-22T10:12:26Z</time>
      </trkpt>
      <trkpt lat="43.92547" lon="5.22217">
        <ele>300.55</ele>
        <time>2021-03-22T10:12:41Z</time>
      </trkpt>
      <trkpt lat="43.92549" lon="5.22217">
        <ele>299.59</ele>
        <time>2021-03-22T10:12:53Z</time>
      </trkpt>
      <trkpt lat="43.9255" lon="5.22208">
        <ele>300.55</ele>
        <time>2021-03-22T10:13:34Z</time>
      </trkpt>
      <trkpt lat="43.92556" lon="5.22207">
        <ele>298.63</ele>
        <time>2021-03-22T10:13:58Z</time>
      </trkpt>
      <trkpt lat="43.92565" lon="5.22207">
        <ele>299.11</ele>
        <time>2021-03-22T10:14:08Z</time>
      </trkpt>
      <trkpt lat="43.9257" lon="5.22209">
        <ele>299.11</ele>
        <time>2021-03-22T10:14:13Z</time>
      </trkpt>
      <trkpt lat="43.92571" lon="5.2221">
        <ele>299.11</ele>
        <time>2021-03-22T10:14:14Z</time>
      </trkpt>
      <trkpt lat="43.92577" lon="5.22212">
        <ele>300.07</ele>
        <time>2021-03-22T10:14:23Z</time>
      </trkpt>
      <trkpt lat="43.92578" lon="5.22213">
        <ele>300.55</ele>
        <time>2021-03-22T10:14:24Z</time>
      </trkpt>
      <trkpt lat="43.92591" lon="5.22219">
        <ele>301.99</ele>
        <time>2021-03-22T10:14:38Z</time>
      </trkpt>
      <trkpt lat="43.92595" lon="5.22218">
        <ele>304.39</ele>
        <time>2021-03-22T10:14:45Z</time>
      </trkpt>
      <trkpt lat="43.92602" lon="5.22214">
        <ele>306.8</ele>
        <time>2021-03-22T10:14:59Z</time>
      </trkpt>
      <trkpt lat="43.92603" lon="5.22214">
        <ele>306.8</ele>
        <time>2021-03-22T10:15:00Z</time>
      </trkpt>
      <trkpt lat="43.92605" lon="5.22214">
        <ele>306.8</ele>
        <time>2021-03-22T10:15:02Z</time>
      </trkpt>
      <trkpt lat="43.92612" lon="5.22221">
        <ele>305.84</ele>
        <time>2021-03-22T10:15:13Z</time>
      </trkpt>
      <trkpt lat="43.92619" lon="5.22221">
        <ele>304.39</ele>
        <time>2021-03-22T10:15:23Z</time>
      </trkpt>
      <trkpt lat="43.92632" lon="5.22212">
        <ele>304.39</ele>
        <time>2021-03-22T10:15:37Z</time>
      </trkpt>
      <trkpt lat="43.92635" lon="5.22213">
        <ele>307.28</ele>
        <time>2021-03-22T10:15:55Z</time>
      </trkpt>
      <trkpt lat="43.92651" lon="5.22191">
        <ele>310.16</ele>
        <time>2021-03-22T10:16:11Z</time>
      </trkpt>
      <trkpt lat="43.92654" lon="5.22188">
        <ele>313.53</ele>
        <time>2021-03-22T10:16:25Z</time>
      </trkpt>
      <trkpt lat="43.92655" lon="5.22188">
        <ele>316.41</ele>
        <time>2021-03-22T10:16:40Z</time>
      </trkpt>
      <trkpt lat="43.92659" lon="5.22182">
        <ele>317.37</ele>
        <time>2021-03-22T10:17:08Z</time>
      </trkpt>
      <trkpt lat="43.9266" lon="5.22178">
        <ele>316.89</ele>
        <time>2021-03-22T10:17:33Z</time>
      </trkpt>
      <trkpt lat="43.92659" lon="5.22177">
        <ele>317.85</ele>
        <time>2021-03-22T10:18:04Z</time>
      </trkpt>
      <trkpt lat="43.92658" lon="5.22181">
        <ele>317.85</ele>
        <time>2021-03-22T10:18:30Z</time>
      </trkpt>
      <trkpt lat="43.92658" lon="5.22183">
        <ele>317.85</ele>
        <time>2021-03-22T10:18:59Z</time>
      </trkpt>
      <trkpt lat="43.92663" lon="5.22172">
        <ele>317.85</ele>
        <time>2021-03-22T10:19:16Z</time>
      </trkpt>
      <trkpt lat="43.92665" lon="5.22165">
        <ele>317.85</ele>
        <time>2021-03-22T10:19:33Z</time>
      </trkpt>
      <trkpt lat="43.92667" lon="5.22163">
        <ele>317.85</ele>
        <time>2021-03-22T10:19:56Z</time>
      </trkpt>
      <trkpt lat="43.92668" lon="5.2216">
        <ele>320.74</ele>
        <time>2021-03-22T10:20:00Z</time>
      </trkpt>
      <trkpt lat="43.92672" lon="5.22153">
        <ele>321.22</ele>
        <time>2021-03-22T10:20:16Z</time>
      </trkpt>
      <trkpt lat="43.92674" lon="5.22151">
        <ele>321.22</ele>
        <time>2021-03-22T10:20:19Z</time>
      </trkpt>
      <trkpt lat="43.92689" lon="5.22139">
        <ele>320.26</ele>
        <time>2021-03-22T10:20:34Z</time>
      </trkpt>
      <trkpt lat="43.92693" lon="5.22136">
        <ele>320.26</ele>
        <time>2021-03-22T10:20:38Z</time>
      </trkpt>
      <trkpt lat="43.92699" lon="5.22135">
        <ele>318.81</ele>
        <time>2021-03-22T10:20:50Z</time>
      </trkpt>
      <trkpt lat="43.92708" lon="5.22132">
        <ele>318.33</ele>
        <time>2021-03-22T10:21:09Z</time>
      </trkpt>
      <trkpt lat="43.92713" lon="5.22133">
        <ele>318.81</ele>
        <time>2021-03-22T10:21:25Z</time>
      </trkpt>
      <trkpt lat="43.92722" lon="5.22133">
        <ele>322.18</ele>
        <time>2021-03-22T10:21:43Z</time>
      </trkpt>
      <trkpt lat="43.92729" lon="5.22139">
        <ele>324.1</ele>
        <time>2021-03-22T10:22:06Z</time>
      </trkpt>
      <trkpt lat="43.92731" lon="5.22133">
        <ele>323.14</ele>
        <time>2021-03-22T10:22:26Z</time>
      </trkpt>
      <trkpt lat="43.92726" lon="5.22123">
        <ele>322.66</ele>
        <time>2021-03-22T10:23:08Z</time>
      </trkpt>
      <trkpt lat="43.92736" lon="5.22122">
        <ele>323.62</ele>
        <time>2021-03-22T10:23:35Z</time>
      </trkpt>
      <trkpt lat="43.92739" lon="5.22122">
        <ele>325.54</ele>
        <time>2021-03-22T10:23:50Z</time>
      </trkpt>
      <trkpt lat="43.92741" lon="5.22118">
        <ele>326.02</ele>
        <time>2021-03-22T10:24:08Z</time>
      </trkpt>
      <trkpt lat="43.92741" lon="5.22121">
        <ele>325.54</ele>
        <time>2021-03-22T10:24:35Z</time>
      </trkpt>
      <trkpt lat="43.92741" lon="5.22115">
        <ele>325.06</ele>
        <time>2021-03-22T10:25:02Z</time>
      </trkpt>
      <trkpt lat="43.92743" lon="5.22113">
        <ele>322.18</ele>
        <time>2021-03-22T10:25:23Z</time>
      </trkpt>
      <trkpt lat="43.92743" lon="5.22115">
        <ele>325.06</ele>
        <time>2021-03-22T10:25:28Z</time>
      </trkpt>
      <trkpt lat="43.92743" lon="5.22115">
        <ele>325.54</ele>
        <time>2021-03-22T10:25:29Z</time>
      </trkpt>
      <trkpt lat="43.92741" lon="5.2212">
        <ele>322.18</ele>
        <time>2021-03-22T10:25:52Z</time>
      </trkpt>
      <trkpt lat="43.92742" lon="5.22119">
        <ele>322.18</ele>
        <time>2021-03-22T10:25:55Z</time>
      </trkpt>
      <trkpt lat="43.92744" lon="5.22119">
        <ele>322.18</ele>
        <time>2021-03-22T10:26:07Z</time>
      </trkpt>
      <trkpt lat="43.92747" lon="5.22126">
        <ele>319.78</ele>
        <time>2021-03-22T10:26:32Z</time>
      </trkpt>
      <trkpt lat="43.92747" lon="5.22128">
        <ele>319.78</ele>
        <time>2021-03-22T10:26:52Z</time>
      </trkpt>
      <trkpt lat="43.9275" lon="5.22118">
        <ele>319.78</ele>
        <time>2021-03-22T10:28:10Z</time>
      </trkpt>
      <trkpt lat="43.92743" lon="5.22115">
        <ele>319.78</ele>
        <time>2021-03-22T10:28:42Z</time>
      </trkpt>
      <trkpt lat="43.92755" lon="5.22113">
        <ele>320.26</ele>
        <time>2021-03-22T10:30:13Z</time>
      </trkpt>
      <trkpt lat="43.92757" lon="5.22111">
        <ele>319.3</ele>
        <time>2021-03-22T10:30:48Z</time>
      </trkpt>
      <trkpt lat="43.92757" lon="5.22111">
        <ele>319.3</ele>
        <time>2021-03-22T10:30:49Z</time>
      </trkpt>
      <trkpt lat="43.92752" lon="5.22109">
        <ele>320.26</ele>
        <time>2021-03-22T10:31:05Z</time>
      </trkpt>
      <trkpt lat="43.92749" lon="5.22116">
        <ele>319.3</ele>
        <time>2021-03-22T10:31:25Z</time>
      </trkpt>
      <trkpt lat="43.92744" lon="5.22147">
        <ele>316.41</ele>
        <time>2021-03-22T10:32:16Z</time>
      </trkpt>
      <trkpt lat="43.92745" lon="5.22141">
        <ele>313.05</ele>
        <time>2021-03-22T10:32:44Z</time>
      </trkpt>
      <trkpt lat="43.92741" lon="5.22146">
        <ele>310.16</ele>
        <time>2021-03-22T10:33:06Z</time>
      </trkpt>
      <trkpt lat="43.92733" lon="5.22157">
        <ele>306.8</ele>
        <time>2021-03-22T10:33:21Z</time>
      </trkpt>
      <trkpt lat="43.92731" lon="5.22155">
        <ele>305.84</ele>
        <time>2021-03-22T10:33:25Z</time>
      </trkpt>
      <trkpt lat="43.92729" lon="5.22168">
        <ele>302.95</ele>
        <time>2021-03-22T10:33:43Z</time>
      </trkpt>
      <trkpt lat="43.92733" lon="5.22174">
        <ele>301.99</ele>
        <time>2021-03-22T10:34:02Z</time>
      </trkpt>
      <trkpt lat="43.92734" lon="5.22192">
        <ele>300.07</ele>
        <time>2021-03-22T10:34:24Z</time>
      </trkpt>
      <trkpt lat="43.92749" lon="5.22183">
        <ele>300.55</ele>
        <time>2021-03-22T10:34:44Z</time>
      </trkpt>
      <trkpt lat="43.9275" lon="5.22182">
        <ele>300.55</ele>
        <time>2021-03-22T10:34:45Z</time>
      </trkpt>
      <trkpt lat="43.9275" lon="5.22183">
        <ele>301.03</ele>
        <time>2021-03-22T10:34:48Z</time>
      </trkpt>
      <trkpt lat="43.92753" lon="5.22184">
        <ele>301.03</ele>
        <time>2021-03-22T10:34:58Z</time>
      </trkpt>
      <trkpt lat="43.92746" lon="5.22192">
        <ele>300.55</ele>
        <time>2021-03-22T10:35:02Z</time>
      </trkpt>
      <trkpt lat="43.92751" lon="5.22207">
        <ele>301.51</ele>
        <time>2021-03-22T10:35:14Z</time>
      </trkpt>
      <trkpt lat="43.92755" lon="5.22216">
        <ele>301.51</ele>
        <time>2021-03-22T10:35:24Z</time>
      </trkpt>
      <trkpt lat="43.92746" lon="5.2223">
        <ele>303.43</ele>
        <time>2021-03-22T10:36:00Z</time>
      </trkpt>
      <trkpt lat="43.92747" lon="5.22229">
        <ele>304.39</ele>
        <time>2021-03-22T10:36:15Z</time>
      </trkpt>
      <trkpt lat="43.92756" lon="5.22233">
        <ele>304.39</ele>
        <time>2021-03-22T10:36:42Z</time>
      </trkpt>
      <trkpt lat="43.92784" lon="5.22235">
        <ele>304.88</ele>
        <time>2021-03-22T10:37:00Z</time>
      </trkpt>
      <trkpt lat="43.9279" lon="5.22236">
        <ele>304.88</ele>
        <time>2021-03-22T10:37:08Z</time>
      </trkpt>
      <trkpt lat="43.92799" lon="5.22241">
        <ele>304.88</ele>
        <time>2021-03-22T10:37:15Z</time>
      </trkpt>
      <trkpt lat="43.9282" lon="5.22249">
        <ele>304.88</ele>
        <time>2021-03-22T10:37:44Z</time>
      </trkpt>
      <trkpt lat="43.92829" lon="5.22256">
        <ele>304.88</ele>
        <time>2021-03-22T10:38:12Z</time>
      </trkpt>
      <trkpt lat="43.9284" lon="5.22258">
        <ele>305.84</ele>
        <time>2021-03-22T10:38:30Z</time>
      </trkpt>
      <trkpt lat="43.92849" lon="5.22261">
        <ele>307.28</ele>
        <time>2021-03-22T10:38:38Z</time>
      </trkpt>
      <trkpt lat="43.92851" lon="5.22263">
        <ele>307.28</ele>
        <time>2021-03-22T10:38:41Z</time>
      </trkpt>
      <trkpt lat="43.92852" lon="5.22265">
        <ele>307.76</ele>
        <time>2021-03-22T10:38:47Z</time>
      </trkpt>
      <trkpt lat="43.92857" lon="5.22262">
        <ele>308.24</ele>
        <time>2021-03-22T10:39:05Z</time>
      </trkpt>
      <trkpt lat="43.92868" lon="5.22242">
        <ele>310.16</ele>
        <time>2021-03-22T10:39:32Z</time>
      </trkpt>
      <trkpt lat="43.92868" lon="5.2224">
        <ele>310.16</ele>
        <time>2021-03-22T10:39:33Z</time>
      </trkpt>
      <trkpt lat="43.92868" lon="5.22239">
        <ele>310.16</ele>
        <time>2021-03-22T10:39:34Z</time>
      </trkpt>
      <trkpt lat="43.92884" lon="5.22214">
        <ele>311.6</ele>
        <time>2021-03-22T10:40:17Z</time>
      </trkpt>
      <trkpt lat="43.92898" lon="5.22208">
        <ele>312.57</ele>
        <time>2021-03-22T10:40:24Z</time>
      </trkpt>
      <trkpt lat="43.92901" lon="5.22206">
        <ele>312.57</ele>
        <time>2021-03-22T10:40:27Z</time>
      </trkpt>
      <trkpt lat="43.92905" lon="5.222">
        <ele>313.53</ele>
        <time>2021-03-22T10:40:36Z</time>
      </trkpt>
      <trkpt lat="43.92904" lon="5.22197">
        <ele>313.53</ele>
        <time>2021-03-22T10:40:40Z</time>
      </trkpt>
      <trkpt lat="43.92905" lon="5.22196">
        <ele>313.53</ele>
        <time>2021-03-22T10:40:41Z</time>
      </trkpt>
      <trkpt lat="43.92906" lon="5.22193">
        <ele>313.53</ele>
        <time>2021-03-22T10:40:44Z</time>
      </trkpt>
      <trkpt lat="43.9291" lon="5.22176">
        <ele>312.57</ele>
        <time>2021-03-22T10:41:01Z</time>
      </trkpt>
      <trkpt lat="43.92937" lon="5.22185">
        <ele>315.45</ele>
        <time>2021-03-22T10:41:30Z</time>
      </trkpt>
      <trkpt lat="43.92951" lon="5.22195">
        <ele>316.41</ele>
        <time>2021-03-22T10:41:45Z</time>
      </trkpt>
      <trkpt lat="43.9297" lon="5.22208">
        <ele>317.37</ele>
        <time>2021-03-22T10:42:03Z</time>
      </trkpt>
      <trkpt lat="43.92971" lon="5.22208">
        <ele>317.37</ele>
        <time>2021-03-22T10:42:04Z</time>
      </trkpt>
      <trkpt lat="43.92972" lon="5.22207">
        <ele>317.85</ele>
        <time>2021-03-22T10:42:05Z</time>
      </trkpt>
      <trkpt lat="43.92973" lon="5.22208">
        <ele>317.85</ele>
        <time>2021-03-22T10:42:06Z</time>
      </trkpt>
      <trkpt lat="43.92974" lon="5.22208">
        <ele>317.85</ele>
        <time>2021-03-22T10:42:07Z</time>
      </trkpt>
      <trkpt lat="43.92976" lon="5.22214">
        <ele>318.81</ele>
        <time>2021-03-22T10:42:13Z</time>
      </trkpt>
      <trkpt lat="43.92983" lon="5.22217">
        <ele>319.3</ele>
        <time>2021-03-22T10:42:22Z</time>
      </trkpt>
      <trkpt lat="43.92991" lon="5.22221">
        <ele>318.81</ele>
        <time>2021-03-22T10:42:37Z</time>
      </trkpt>
      <trkpt lat="43.92992" lon="5.22222">
        <ele>318.81</ele>
        <time>2021-03-22T10:42:38Z</time>
      </trkpt>
      <trkpt lat="43.92995" lon="5.22225">
        <ele>318.81</ele>
        <time>2021-03-22T10:42:41Z</time>
      </trkpt>
      <trkpt lat="43.93001" lon="5.22232">
        <ele>318.81</ele>
        <time>2021-03-22T10:42:48Z</time>
      </trkpt>
      <trkpt lat="43.93001" lon="5.22233">
        <ele>318.81</ele>
        <time>2021-03-22T10:42:49Z</time>
      </trkpt>
      <trkpt lat="43.93005" lon="5.22238">
        <ele>319.3</ele>
        <time>2021-03-22T10:42:55Z</time>
      </trkpt>
      <trkpt lat="43.93014" lon="5.2224">
        <ele>320.26</ele>
        <time>2021-03-22T10:43:03Z</time>
      </trkpt>
      <trkpt lat="43.93019" lon="5.22241">
        <ele>320.26</ele>
        <time>2021-03-22T10:43:07Z</time>
      </trkpt>
      <trkpt lat="43.93026" lon="5.22239">
        <ele>320.26</ele>
        <time>2021-03-22T10:43:12Z</time>
      </trkpt>
      <trkpt lat="43.93105" lon="5.22255">
        <ele>323.14</ele>
        <time>2021-03-22T10:43:48Z</time>
      </trkpt>
      <trkpt lat="43.9309" lon="5.22255">
        <ele>326.02</ele>
        <time>2021-03-22T10:44:15Z</time>
      </trkpt>
      <trkpt lat="43.93101" lon="5.22244">
        <ele>328.91</ele>
        <time>2021-03-22T10:45:07Z</time>
      </trkpt>
      <trkpt lat="43.93102" lon="5.22236">
        <ele>329.39</ele>
        <time>2021-03-22T10:45:14Z</time>
      </trkpt>
      <trkpt lat="43.93104" lon="5.22231">
        <ele>329.39</ele>
        <time>2021-03-22T10:45:18Z</time>
      </trkpt>
      <trkpt lat="43.93096" lon="5.22189">
        <ele>329.39</ele>
        <time>2021-03-22T10:45:39Z</time>
      </trkpt>
      <trkpt lat="43.93137" lon="5.22171">
        <ele>332.27</ele>
        <time>2021-03-22T10:46:14Z</time>
      </trkpt>
      <trkpt lat="43.9314" lon="5.22167">
        <ele>332.27</ele>
        <time>2021-03-22T10:46:19Z</time>
      </trkpt>
      <trkpt lat="43.93144" lon="5.22152">
        <ele>334.68</ele>
        <time>2021-03-22T10:46:44Z</time>
      </trkpt>
      <trkpt lat="43.93147" lon="5.22143">
        <ele>335.64</ele>
        <time>2021-03-22T10:47:02Z</time>
      </trkpt>
      <trkpt lat="43.93147" lon="5.22141">
        <ele>335.64</ele>
        <time>2021-03-22T10:47:06Z</time>
      </trkpt>
      <trkpt lat="43.93171" lon="5.2213">
        <ele>335.64</ele>
        <time>2021-03-22T10:47:33Z</time>
      </trkpt>
      <trkpt lat="43.93174" lon="5.22126">
        <ele>335.64</ele>
        <time>2021-03-22T10:47:38Z</time>
      </trkpt>
      <trkpt lat="43.93193" lon="5.22107">
        <ele>338.04</ele>
        <time>2021-03-22T10:48:00Z</time>
      </trkpt>
      <trkpt lat="43.93179" lon="5.2209">
        <ele>339.48</ele>
        <time>2021-03-22T10:48:43Z</time>
      </trkpt>
      <trkpt lat="43.93162" lon="5.2208">
        <ele>339.96</ele>
        <time>2021-03-22T10:49:22Z</time>
      </trkpt>
      <trkpt lat="43.9321" lon="5.22112">
        <ele>340.92</ele>
        <time>2021-03-22T10:49:52Z</time>
      </trkpt>
      <trkpt lat="43.93215" lon="5.22118">
        <ele>340.92</ele>
        <time>2021-03-22T10:49:58Z</time>
      </trkpt>
      <trkpt lat="43.93222" lon="5.22128">
        <ele>341.41</ele>
        <time>2021-03-22T10:50:08Z</time>
      </trkpt>
      <trkpt lat="43.93226" lon="5.2213">
        <ele>341.41</ele>
        <time>2021-03-22T10:50:11Z</time>
      </trkpt>
      <trkpt lat="43.93234" lon="5.22134">
        <ele>342.37</ele>
        <time>2021-03-22T10:50:22Z</time>
      </trkpt>
      <trkpt lat="43.9322" lon="5.22137">
        <ele>343.81</ele>
        <time>2021-03-22T10:50:44Z</time>
      </trkpt>
      <trkpt lat="43.93208" lon="5.22146">
        <ele>346.69</ele>
        <time>2021-03-22T10:51:20Z</time>
      </trkpt>
      <trkpt lat="43.9321" lon="5.22149">
        <ele>350.06</ele>
        <time>2021-03-22T10:51:35Z</time>
      </trkpt>
      <trkpt lat="43.9321" lon="5.22152">
        <ele>350.06</ele>
        <time>2021-03-22T10:51:37Z</time>
      </trkpt>
      <trkpt lat="43.9321" lon="5.22155">
        <ele>350.06</ele>
        <time>2021-03-22T10:51:40Z</time>
      </trkpt>
      <trkpt lat="43.93211" lon="5.2216">
        <ele>350.54</ele>
        <time>2021-03-22T10:51:43Z</time>
      </trkpt>
      <trkpt lat="43.93244" lon="5.22172">
        <ele>352.46</ele>
        <time>2021-03-22T10:51:55Z</time>
      </trkpt>
      <trkpt lat="43.93244" lon="5.22172">
        <ele>352.46</ele>
        <time>2021-03-22T10:51:56Z</time>
      </trkpt>
      <trkpt lat="43.93244" lon="5.22172">
        <ele>352.46</ele>
        <time>2021-03-22T10:51:57Z</time>
      </trkpt>
      <trkpt lat="43.93242" lon="5.22168">
        <ele>352.46</ele>
        <time>2021-03-22T10:52:02Z</time>
      </trkpt>
      <trkpt lat="43.93254" lon="5.22162">
        <ele>351.98</ele>
        <time>2021-03-22T10:53:13Z</time>
      </trkpt>
      <trkpt lat="43.93255" lon="5.22159">
        <ele>351.98</ele>
        <time>2021-03-22T10:53:15Z</time>
      </trkpt>
      <trkpt lat="43.93256" lon="5.22158">
        <ele>351.98</ele>
        <time>2021-03-22T10:53:16Z</time>
      </trkpt>
      <trkpt lat="43.93256" lon="5.22149">
        <ele>352.46</ele>
        <time>2021-03-22T10:53:30Z</time>
      </trkpt>
      <trkpt lat="43.93239" lon="5.22132">
        <ele>351.98</ele>
        <time>2021-03-22T10:53:40Z</time>
      </trkpt>
      <trkpt lat="43.93238" lon="5.22131">
        <ele>351.98</ele>
        <time>2021-03-22T10:53:41Z</time>
      </trkpt>
      <trkpt lat="43.93265" lon="5.22111">
        <ele>353.42</ele>
        <time>2021-03-22T10:54:28Z</time>
      </trkpt>
      <trkpt lat="43.93266" lon="5.22111">
        <ele>353.42</ele>
        <time>2021-03-22T10:54:29Z</time>
      </trkpt>
      <trkpt lat="43.93267" lon="5.22112">
        <ele>353.42</ele>
        <time>2021-03-22T10:54:31Z</time>
      </trkpt>
      <trkpt lat="43.93285" lon="5.22115">
        <ele>354.38</ele>
        <time>2021-03-22T10:54:49Z</time>
      </trkpt>
      <trkpt lat="43.93305" lon="5.2211">
        <ele>356.79</ele>
        <time>2021-03-22T10:55:06Z</time>
      </trkpt>
      <trkpt lat="43.93306" lon="5.22111">
        <ele>356.79</ele>
        <time>2021-03-22T10:55:07Z</time>
      </trkpt>
      <trkpt lat="43.93307" lon="5.22112">
        <ele>356.79</ele>
        <time>2021-03-22T10:55:08Z</time>
      </trkpt>
      <trkpt lat="43.93317" lon="5.22105">
        <ele>358.23</ele>
        <time>2021-03-22T10:55:20Z</time>
      </trkpt>
      <trkpt lat="43.93326" lon="5.22104">
        <ele>359.67</ele>
        <time>2021-03-22T10:55:31Z</time>
      </trkpt>
      <trkpt lat="43.93334" lon="5.22109">
        <ele>362.07</ele>
        <time>2021-03-22T10:55:43Z</time>
      </trkpt>
      <trkpt lat="43.93343" lon="5.22111">
        <ele>361.59</ele>
        <time>2021-03-22T10:56:02Z</time>
      </trkpt>
      <trkpt lat="43.93346" lon="5.22128">
        <ele>363.04</ele>
        <time>2021-03-22T10:57:13Z</time>
      </trkpt>
      <trkpt lat="43.9335" lon="5.22128">
        <ele>365.92</ele>
        <time>2021-03-22T10:57:25Z</time>
      </trkpt>
      <trkpt lat="43.93352" lon="5.22127">
        <ele>369.28</ele>
        <time>2021-03-22T10:57:41Z</time>
      </trkpt>
      <trkpt lat="43.9335" lon="5.22124">
        <ele>369.76</ele>
        <time>2021-03-22T10:58:45Z</time>
      </trkpt>
      <trkpt lat="43.93348" lon="5.22122">
        <ele>369.28</ele>
        <time>2021-03-22T10:58:48Z</time>
      </trkpt>
      <trkpt lat="43.93351" lon="5.22112">
        <ele>368.8</ele>
        <time>2021-03-22T10:58:57Z</time>
      </trkpt>
      <trkpt lat="43.93359" lon="5.2212">
        <ele>371.21</ele>
        <time>2021-03-22T10:59:38Z</time>
      </trkpt>
      <trkpt lat="43.9336" lon="5.2212">
        <ele>371.21</ele>
        <time>2021-03-22T10:59:39Z</time>
      </trkpt>
      <trkpt lat="43.93367" lon="5.22118">
        <ele>373.61</ele>
        <time>2021-03-22T10:59:45Z</time>
      </trkpt>
      <trkpt lat="43.9337" lon="5.22119">
        <ele>373.61</ele>
        <time>2021-03-22T10:59:48Z</time>
      </trkpt>
      <trkpt lat="43.9338" lon="5.22124">
        <ele>373.61</ele>
        <time>2021-03-22T11:00:00Z</time>
      </trkpt>
      <trkpt lat="43.93393" lon="5.22135">
        <ele>370.73</ele>
        <time>2021-03-22T11:00:29Z</time>
      </trkpt>
      <trkpt lat="43.93414" lon="5.22126">
        <ele>369.76</ele>
        <time>2021-03-22T11:00:53Z</time>
      </trkpt>
      <trkpt lat="43.93416" lon="5.22125">
        <ele>369.76</ele>
        <time>2021-03-22T11:00:56Z</time>
      </trkpt>
      <trkpt lat="43.93419" lon="5.22127">
        <ele>369.76</ele>
        <time>2021-03-22T11:00:59Z</time>
      </trkpt>
      <trkpt lat="43.93423" lon="5.22128">
        <ele>369.76</ele>
        <time>2021-03-22T11:01:03Z</time>
      </trkpt>
      <trkpt lat="43.93424" lon="5.22128">
        <ele>369.76</ele>
        <time>2021-03-22T11:01:04Z</time>
      </trkpt>
      <trkpt lat="43.93443" lon="5.22123">
        <ele>369.76</ele>
        <time>2021-03-22T11:01:25Z</time>
      </trkpt>
      <trkpt lat="43.93457" lon="5.22109">
        <ele>371.21</ele>
        <time>2021-03-22T11:01:41Z</time>
      </trkpt>
      <trkpt lat="43.93464" lon="5.22105">
        <ele>371.21</ele>
        <time>2021-03-22T11:01:49Z</time>
      </trkpt>
      <trkpt lat="43.93484" lon="5.22096">
        <ele>371.69</ele>
        <time>2021-03-22T11:02:11Z</time>
      </trkpt>
      <trkpt lat="43.93525" lon="5.22092">
        <ele>373.13</ele>
        <time>2021-03-22T11:02:45Z</time>
      </trkpt>
      <trkpt lat="43.93527" lon="5.22091">
        <ele>373.13</ele>
        <time>2021-03-22T11:02:47Z</time>
      </trkpt>
      <trkpt lat="43.93548" lon="5.22084">
        <ele>375.53</ele>
        <time>2021-03-22T11:03:12Z</time>
      </trkpt>
      <trkpt lat="43.93551" lon="5.22086">
        <ele>376.01</ele>
        <time>2021-03-22T11:03:16Z</time>
      </trkpt>
      <trkpt lat="43.93555" lon="5.22083">
        <ele>375.53</ele>
        <time>2021-03-22T11:03:21Z</time>
      </trkpt>
      <trkpt lat="43.93558" lon="5.22083">
        <ele>375.53</ele>
        <time>2021-03-22T11:03:24Z</time>
      </trkpt>
      <trkpt lat="43.93568" lon="5.22083">
        <ele>375.53</ele>
        <time>2021-03-22T11:03:33Z</time>
      </trkpt>
      <trkpt lat="43.93583" lon="5.22073">
        <ele>374.57</ele>
        <time>2021-03-22T11:03:48Z</time>
      </trkpt>
      <trkpt lat="43.93612" lon="5.22089">
        <ele>375.53</ele>
        <time>2021-03-22T11:04:13Z</time>
      </trkpt>
      <trkpt lat="43.93623" lon="5.22086">
        <ele>374.57</ele>
        <time>2021-03-22T11:04:35Z</time>
      </trkpt>
      <trkpt lat="43.93626" lon="5.22087">
        <ele>375.05</ele>
        <time>2021-03-22T11:04:38Z</time>
      </trkpt>
      <trkpt lat="43.93643" lon="5.22097">
        <ele>376.01</ele>
        <time>2021-03-22T11:04:54Z</time>
      </trkpt>
      <trkpt lat="43.93648" lon="5.221">
        <ele>376.01</ele>
        <time>2021-03-22T11:04:58Z</time>
      </trkpt>
      <trkpt lat="43.93657" lon="5.22102">
        <ele>376.01</ele>
        <time>2021-03-22T11:05:05Z</time>
      </trkpt>
      <trkpt lat="43.93669" lon="5.22114">
        <ele>377.45</ele>
        <time>2021-03-22T11:05:29Z</time>
      </trkpt>
      <trkpt lat="43.93677" lon="5.22112">
        <ele>376.97</ele>
        <time>2021-03-22T11:05:44Z</time>
      </trkpt>
      <trkpt lat="43.93685" lon="5.22119">
        <ele>376.97</ele>
        <time>2021-03-22T11:05:51Z</time>
      </trkpt>
      <trkpt lat="43.93693" lon="5.22127">
        <ele>376.97</ele>
        <time>2021-03-22T11:05:59Z</time>
      </trkpt>
      <trkpt lat="43.93699" lon="5.22125">
        <ele>376.97</ele>
        <time>2021-03-22T11:06:08Z</time>
      </trkpt>
      <trkpt lat="43.93703" lon="5.22128">
        <ele>377.94</ele>
        <time>2021-03-22T11:06:12Z</time>
      </trkpt>
      <trkpt lat="43.93717" lon="5.22128">
        <ele>379.38</ele>
        <time>2021-03-22T11:06:26Z</time>
      </trkpt>
      <trkpt lat="43.93718" lon="5.22129">
        <ele>379.38</ele>
        <time>2021-03-22T11:06:27Z</time>
      </trkpt>
      <trkpt lat="43.93721" lon="5.22129">
        <ele>379.38</ele>
        <time>2021-03-22T11:06:29Z</time>
      </trkpt>
      <trkpt lat="43.93756" lon="5.22132">
        <ele>380.34</ele>
        <time>2021-03-22T11:07:06Z</time>
      </trkpt>
      <trkpt lat="43.93758" lon="5.22132">
        <ele>380.82</ele>
        <time>2021-03-22T11:07:07Z</time>
      </trkpt>
      <trkpt lat="43.93759" lon="5.22132">
        <ele>380.82</ele>
        <time>2021-03-22T11:07:08Z</time>
      </trkpt>
      <trkpt lat="43.93761" lon="5.22131">
        <ele>380.82</ele>
        <time>2021-03-22T11:07:11Z</time>
      </trkpt>
      <trkpt lat="43.93788" lon="5.22124">
        <ele>381.3</ele>
        <time>2021-03-22T11:07:33Z</time>
      </trkpt>
      <trkpt lat="43.93806" lon="5.22133">
        <ele>382.26</ele>
        <time>2021-03-22T11:07:59Z</time>
      </trkpt>
      <trkpt lat="43.93808" lon="5.22132">
        <ele>382.74</ele>
        <time>2021-03-22T11:08:02Z</time>
      </trkpt>
      <trkpt lat="43.93824" lon="5.22129">
        <ele>383.7</ele>
        <time>2021-03-22T11:08:18Z</time>
      </trkpt>
      <trkpt lat="43.93827" lon="5.2213">
        <ele>383.22</ele>
        <time>2021-03-22T11:08:21Z</time>
      </trkpt>
      <trkpt lat="43.93838" lon="5.22142">
        <ele>381.78</ele>
        <time>2021-03-22T11:08:34Z</time>
      </trkpt>
      <trkpt lat="43.9384" lon="5.22146">
        <ele>382.26</ele>
        <time>2021-03-22T11:08:54Z</time>
      </trkpt>
      <trkpt lat="43.9384" lon="5.22158">
        <ele>382.26</ele>
        <time>2021-03-22T11:09:16Z</time>
      </trkpt>
      <trkpt lat="43.93844" lon="5.22159">
        <ele>385.63</ele>
        <time>2021-03-22T11:10:01Z</time>
      </trkpt>
      <trkpt lat="43.93842" lon="5.22159">
        <ele>388.51</ele>
        <time>2021-03-22T11:10:29Z</time>
      </trkpt>
      <trkpt lat="43.93842" lon="5.22162">
        <ele>389.47</ele>
        <time>2021-03-22T11:10:32Z</time>
      </trkpt>
      <trkpt lat="43.93843" lon="5.2218">
        <ele>392.36</ele>
        <time>2021-03-22T11:10:44Z</time>
      </trkpt>
      <trkpt lat="43.93852" lon="5.22191">
        <ele>395.24</ele>
        <time>2021-03-22T11:11:00Z</time>
      </trkpt>
      <trkpt lat="43.9386" lon="5.22201">
        <ele>397.64</ele>
        <time>2021-03-22T11:11:19Z</time>
      </trkpt>
      <trkpt lat="43.93868" lon="5.22194">
        <ele>398.12</ele>
        <time>2021-03-22T11:11:47Z</time>
      </trkpt>
      <trkpt lat="43.93869" lon="5.22192">
        <ele>398.12</ele>
        <time>2021-03-22T11:11:49Z</time>
      </trkpt>
      <trkpt lat="43.93873" lon="5.22187">
        <ele>398.12</ele>
        <time>2021-03-22T11:12:28Z</time>
      </trkpt>
      <trkpt lat="43.93874" lon="5.22197">
        <ele>398.6</ele>
        <time>2021-03-22T11:12:57Z</time>
      </trkpt>
      <trkpt lat="43.93871" lon="5.2221">
        <ele>400.53</ele>
        <time>2021-03-22T11:13:08Z</time>
      </trkpt>
      <trkpt lat="43.93883" lon="5.22214">
        <ele>401.97</ele>
        <time>2021-03-22T11:13:27Z</time>
      </trkpt>
      <trkpt lat="43.93902" lon="5.22214">
        <ele>401.49</ele>
        <time>2021-03-22T11:13:46Z</time>
      </trkpt>
      <trkpt lat="43.93916" lon="5.22209">
        <ele>401.97</ele>
        <time>2021-03-22T11:13:57Z</time>
      </trkpt>
      <trkpt lat="43.93917" lon="5.22208">
        <ele>401.97</ele>
        <time>2021-03-22T11:13:58Z</time>
      </trkpt>
      <trkpt lat="43.93918" lon="5.22208">
        <ele>401.97</ele>
        <time>2021-03-22T11:13:59Z</time>
      </trkpt>
      <trkpt lat="43.93926" lon="5.22204">
        <ele>403.41</ele>
        <time>2021-03-22T11:14:07Z</time>
      </trkpt>
      <trkpt lat="43.93927" lon="5.22203">
        <ele>403.41</ele>
        <time>2021-03-22T11:14:08Z</time>
      </trkpt>
      <trkpt lat="43.93927" lon="5.22202">
        <ele>403.89</ele>
        <time>2021-03-22T11:14:09Z</time>
      </trkpt>
      <trkpt lat="43.93931" lon="5.22194">
        <ele>405.33</ele>
        <time>2021-03-22T11:14:19Z</time>
      </trkpt>
      <trkpt lat="43.93932" lon="5.22192">
        <ele>405.81</ele>
        <time>2021-03-22T11:14:21Z</time>
      </trkpt>
      <trkpt lat="43.93942" lon="5.22191">
        <ele>406.77</ele>
        <time>2021-03-22T11:14:34Z</time>
      </trkpt>
      <trkpt lat="43.93958" lon="5.22202">
        <ele>407.74</ele>
        <time>2021-03-22T11:14:49Z</time>
      </trkpt>
      <trkpt lat="43.93977" lon="5.22201">
        <ele>406.77</ele>
        <time>2021-03-22T11:15:08Z</time>
      </trkpt>
      <trkpt lat="43.93991" lon="5.22197">
        <ele>404.85</ele>
        <time>2021-03-22T11:15:24Z</time>
      </trkpt>
      <trkpt lat="43.93994" lon="5.22202">
        <ele>401.49</ele>
        <time>2021-03-22T11:15:33Z</time>
      </trkpt>
      <trkpt lat="43.94002" lon="5.22205">
        <ele>399.08</ele>
        <time>2021-03-22T11:15:46Z</time>
      </trkpt>
      <trkpt lat="43.94008" lon="5.22205">
        <ele>397.16</ele>
        <time>2021-03-22T11:15:57Z</time>
      </trkpt>
      <trkpt lat="43.94006" lon="5.22188">
        <ele>395.24</ele>
        <time>2021-03-22T11:16:16Z</time>
      </trkpt>
      <trkpt lat="43.94012" lon="5.22186">
        <ele>395.24</ele>
        <time>2021-03-22T11:16:27Z</time>
      </trkpt>
      <trkpt lat="43.94015" lon="5.22185">
        <ele>396.68</ele>
        <time>2021-03-22T11:16:32Z</time>
      </trkpt>
      <trkpt lat="43.94011" lon="5.22176">
        <ele>399.57</ele>
        <time>2021-03-22T11:16:49Z</time>
      </trkpt>
      <trkpt lat="43.94019" lon="5.2218">
        <ele>401.49</ele>
        <time>2021-03-22T11:17:09Z</time>
      </trkpt>
      <trkpt lat="43.94025" lon="5.22186">
        <ele>402.93</ele>
        <time>2021-03-22T11:17:30Z</time>
      </trkpt>
      <trkpt lat="43.94025" lon="5.2219">
        <ele>402.45</ele>
        <time>2021-03-22T11:17:33Z</time>
      </trkpt>
      <trkpt lat="43.94024" lon="5.22205">
        <ele>402.45</ele>
        <time>2021-03-22T11:17:47Z</time>
      </trkpt>
      <trkpt lat="43.94031" lon="5.22204">
        <ele>402.45</ele>
        <time>2021-03-22T11:18:19Z</time>
      </trkpt>
      <trkpt lat="43.9403" lon="5.22197">
        <ele>402.45</ele>
        <time>2021-03-22T11:18:23Z</time>
      </trkpt>
      <trkpt lat="43.94029" lon="5.22196">
        <ele>402.45</ele>
        <time>2021-03-22T11:18:24Z</time>
      </trkpt>
      <trkpt lat="43.94026" lon="5.22188">
        <ele>401.97</ele>
        <time>2021-03-22T11:18:32Z</time>
      </trkpt>
      <trkpt lat="43.94028" lon="5.22202">
        <ele>402.93</ele>
        <time>2021-03-22T11:18:46Z</time>
      </trkpt>
      <trkpt lat="43.94027" lon="5.22205">
        <ele>403.41</ele>
        <time>2021-03-22T11:19:05Z</time>
      </trkpt>
      <trkpt lat="43.94031" lon="5.22201">
        <ele>403.41</ele>
        <time>2021-03-22T11:19:30Z</time>
      </trkpt>
      <trkpt lat="43.94029" lon="5.22199">
        <ele>403.89</ele>
        <time>2021-03-22T11:19:50Z</time>
      </trkpt>
      <trkpt lat="43.94029" lon="5.22202">
        <ele>404.37</ele>
        <time>2021-03-22T11:20:10Z</time>
      </trkpt>
      <trkpt lat="43.94025" lon="5.22199">
        <ele>404.37</ele>
        <time>2021-03-22T11:20:39Z</time>
      </trkpt>
      <trkpt lat="43.94028" lon="5.22205">
        <ele>403.89</ele>
        <time>2021-03-22T11:20:57Z</time>
      </trkpt>
      <trkpt lat="43.9403" lon="5.22209">
        <ele>403.89</ele>
        <time>2021-03-22T11:21:24Z</time>
      </trkpt>
      <trkpt lat="43.94031" lon="5.22207">
        <ele>403.89</ele>
        <time>2021-03-22T11:22:31Z</time>
      </trkpt>
      <trkpt lat="43.94029" lon="5.22207">
        <ele>403.89</ele>
        <time>2021-03-22T11:23:09Z</time>
      </trkpt>
      <trkpt lat="43.94026" lon="5.22206">
        <ele>403.89</ele>
        <time>2021-03-22T11:23:42Z</time>
      </trkpt>
      <trkpt lat="43.94027" lon="5.22205">
        <ele>403.89</ele>
        <time>2021-03-22T11:24:09Z</time>
      </trkpt>
      <trkpt lat="43.94029" lon="5.22203">
        <ele>403.89</ele>
        <time>2021-03-22T11:24:34Z</time>
      </trkpt>
      <trkpt lat="43.94028" lon="5.22204">
        <ele>403.89</ele>
        <time>2021-03-22T11:25:05Z</time>
      </trkpt>
      <trkpt lat="43.94028" lon="5.22203">
        <ele>403.89</ele>
        <time>2021-03-22T11:25:48Z</time>
      </trkpt>
      <trkpt lat="43.94025" lon="5.22204">
        <ele>403.89</ele>
        <time>2021-03-22T11:26:35Z</time>
      </trkpt>
      <trkpt lat="43.94026" lon="5.22207">
        <ele>403.89</ele>
        <time>2021-03-22T11:27:10Z</time>
      </trkpt>
      <trkpt lat="43.94025" lon="5.22204">
        <ele>403.89</ele>
        <time>2021-03-22T11:27:47Z</time>
      </trkpt>
      <trkpt lat="43.94024" lon="5.22202">
        <ele>403.89</ele>
        <time>2021-03-22T11:28:25Z</time>
      </trkpt>
      <trkpt lat="43.94024" lon="5.22204">
        <ele>403.89</ele>
        <time>2021-03-22T11:28:59Z</time>
      </trkpt>
      <trkpt lat="43.94026" lon="5.22207">
        <ele>403.89</ele>
        <time>2021-03-22T11:29:32Z</time>
      </trkpt>
      <trkpt lat="43.94026" lon="5.22204">
        <ele>403.89</ele>
        <time>2021-03-22T11:30:04Z</time>
      </trkpt>
      <trkpt lat="43.94026" lon="5.22205">
        <ele>403.89</ele>
        <time>2021-03-22T11:30:38Z</time>
      </trkpt>
      <trkpt lat="43.94026" lon="5.22205">
        <ele>403.89</ele>
        <time>2021-03-22T11:31:07Z</time>
      </trkpt>
      <trkpt lat="43.94027" lon="5.22203">
        <ele>403.89</ele>
        <time>2021-03-22T11:31:40Z</time>
      </trkpt>
      <trkpt lat="43.94026" lon="5.22202">
        <ele>403.89</ele>
        <time>2021-03-22T11:32:12Z</time>
      </trkpt>
      <trkpt lat="43.94025" lon="5.22207">
        <ele>403.89</ele>
        <time>2021-03-22T11:32:44Z</time>
      </trkpt>
      <trkpt lat="43.94025" lon="5.22208">
        <ele>403.89</ele>
        <time>2021-03-22T11:33:20Z</time>
      </trkpt>
      <trkpt lat="43.94027" lon="5.22208">
        <ele>403.89</ele>
        <time>2021-03-22T11:33:56Z</time>
      </trkpt>
      <trkpt lat="43.94026" lon="5.22206">
        <ele>403.89</ele>
        <time>2021-03-22T11:34:32Z</time>
      </trkpt>
      <trkpt lat="43.94028" lon="5.22208">
        <ele>403.89</ele>
        <time>2021-03-22T11:35:05Z</time>
      </trkpt>
      <trkpt lat="43.94027" lon="5.22206">
        <ele>403.89</ele>
        <time>2021-03-22T11:35:35Z</time>
      </trkpt>
      <trkpt lat="43.94024" lon="5.22204">
        <ele>403.89</ele>
        <time>2021-03-22T11:36:07Z</time>
      </trkpt>
      <trkpt lat="43.94027" lon="5.22207">
        <ele>403.89</ele>
        <time>2021-03-22T11:36:41Z</time>
      </trkpt>
      <trkpt lat="43.94031" lon="5.22211">
        <ele>403.89</ele>
        <time>2021-03-22T11:37:13Z</time>
      </trkpt>
      <trkpt lat="43.94024" lon="5.22208">
        <ele>403.89</ele>
        <time>2021-03-22T11:37:46Z</time>
      </trkpt>
      <trkpt lat="43.94026" lon="5.22208">
        <ele>403.89</ele>
        <time>2021-03-22T11:38:19Z</time>
      </trkpt>
      <trkpt lat="43.94026" lon="5.22208">
        <ele>403.89</ele>
        <time>2021-03-22T11:38:53Z</time>
      </trkpt>
      <trkpt lat="43.94024" lon="5.22205">
        <ele>403.89</ele>
        <time>2021-03-22T11:39:24Z</time>
      </trkpt>
      <trkpt lat="43.94021" lon="5.22208">
        <ele>403.89</ele>
        <time>2021-03-22T11:40:07Z</time>
      </trkpt>
      <trkpt lat="43.94023" lon="5.22206">
        <ele>403.89</ele>
        <time>2021-03-22T11:40:44Z</time>
      </trkpt>
      <trkpt lat="43.94025" lon="5.22205">
        <ele>408.7</ele>
        <time>2021-03-22T11:41:04Z</time>
      </trkpt>
      <trkpt lat="43.94025" lon="5.22207">
        <ele>405.81</ele>
        <time>2021-03-22T11:41:12Z</time>
      </trkpt>
      <trkpt lat="43.9403" lon="5.22209">
        <ele>403.89</ele>
        <time>2021-03-22T11:41:43Z</time>
      </trkpt>
      <trkpt lat="43.94029" lon="5.2221">
        <ele>403.89</ele>
        <time>2021-03-22T11:42:20Z</time>
      </trkpt>
      <trkpt lat="43.94028" lon="5.22207">
        <ele>403.41</ele>
        <time>2021-03-22T11:42:53Z</time>
      </trkpt>
      <trkpt lat="43.94025" lon="5.22208">
        <ele>403.89</ele>
        <time>2021-03-22T11:43:30Z</time>
      </trkpt>
      <trkpt lat="43.94025" lon="5.22206">
        <ele>403.89</ele>
        <time>2021-03-22T11:44:04Z</time>
      </trkpt>
      <trkpt lat="43.94026" lon="5.22206">
        <ele>403.89</ele>
        <time>2021-03-22T11:44:38Z</time>
      </trkpt>
      <trkpt lat="43.94026" lon="5.22206">
        <ele>403.89</ele>
        <time>2021-03-22T11:45:49Z</time>
      </trkpt>
      <trkpt lat="43.94024" lon="5.22204">
        <ele>403.89</ele>
        <time>2021-03-22T11:46:24Z</time>
      </trkpt>
      <trkpt lat="43.94023" lon="5.22203">
        <ele>403.89</ele>
        <time>2021-03-22T11:47:05Z</time>
      </trkpt>
      <trkpt lat="43.94025" lon="5.22204">
        <ele>403.89</ele>
        <time>2021-03-22T11:47:38Z</time>
      </trkpt>
      <trkpt lat="43.94029" lon="5.22205">
        <ele>403.89</ele>
        <time>2021-03-22T11:48:28Z</time>
      </trkpt>
      <trkpt lat="43.94028" lon="5.22202">
        <ele>403.89</ele>
        <time>2021-03-22T11:49:09Z</time>
      </trkpt>
      <trkpt lat="43.94027" lon="5.22202">
        <ele>403.89</ele>
        <time>2021-03-22T11:49:42Z</time>
      </trkpt>
      <trkpt lat="43.94027" lon="5.22204">
        <ele>403.89</ele>
        <time>2021-03-22T11:50:18Z</time>
      </trkpt>
      <trkpt lat="43.94027" lon="5.22203">
        <ele>403.89</ele>
        <time>2021-03-22T11:50:56Z</time>
      </trkpt>
      <trkpt lat="43.94027" lon="5.22204">
        <ele>403.89</ele>
        <time>2021-03-22T11:51:30Z</time>
      </trkpt>
      <trkpt lat="43.94032" lon="5.22207">
        <ele>403.89</ele>
        <time>2021-03-22T11:52:12Z</time>
      </trkpt>
      <trkpt lat="43.94026" lon="5.22202">
        <ele>403.89</ele>
        <time>2021-03-22T11:53:38Z</time>
      </trkpt>
      <trkpt lat="43.94028" lon="5.22203">
        <ele>403.89</ele>
        <time>2021-03-22T11:54:14Z</time>
      </trkpt>
      <trkpt lat="43.9403" lon="5.22204">
        <ele>403.89</ele>
        <time>2021-03-22T11:55:17Z</time>
      </trkpt>
      <trkpt lat="43.94026" lon="5.22202">
        <ele>403.89</ele>
        <time>2021-03-22T11:55:55Z</time>
      </trkpt>
      <trkpt lat="43.94027" lon="5.22205">
        <ele>403.89</ele>
        <time>2021-03-22T11:56:28Z</time>
      </trkpt>
      <trkpt lat="43.94029" lon="5.22206">
        <ele>403.89</ele>
        <time>2021-03-22T11:56:59Z</time>
      </trkpt>
      <trkpt lat="43.94022" lon="5.22209">
        <ele>403.89</ele>
        <time>2021-03-22T11:57:19Z</time>
      </trkpt>
      <trkpt lat="43.94023" lon="5.22207">
        <ele>403.89</ele>
        <time>2021-03-22T11:57:49Z</time>
      </trkpt>
      <trkpt lat="43.94023" lon="5.22203">
        <ele>403.89</ele>
        <time>2021-03-22T11:58:15Z</time>
      </trkpt>
      <trkpt lat="43.94023" lon="5.22209">
        <ele>403.89</ele>
        <time>2021-03-22T11:58:41Z</time>
      </trkpt>
      <trkpt lat="43.94025" lon="5.22216">
        <ele>403.89</ele>
        <time>2021-03-22T11:58:45Z</time>
      </trkpt>
      <trkpt lat="43.94025" lon="5.22224">
        <ele>404.37</ele>
        <time>2021-03-22T11:58:49Z</time>
      </trkpt>
      <trkpt lat="43.94026" lon="5.22239">
        <ele>405.81</ele>
        <time>2021-03-22T11:58:58Z</time>
      </trkpt>
      <trkpt lat="43.94026" lon="5.22241">
        <ele>405.81</ele>
        <time>2021-03-22T11:58:59Z</time>
      </trkpt>
      <trkpt lat="43.94027" lon="5.22269">
        <ele>405.33</ele>
        <time>2021-03-22T11:59:16Z</time>
      </trkpt>
      <trkpt lat="43.94031" lon="5.22295">
        <ele>405.81</ele>
        <time>2021-03-22T11:59:32Z</time>
      </trkpt>
      <trkpt lat="43.9404" lon="5.2231">
        <ele>406.29</ele>
        <time>2021-03-22T11:59:45Z</time>
      </trkpt>
      <trkpt lat="43.94055" lon="5.22324">
        <ele>406.77</ele>
        <time>2021-03-22T11:59:58Z</time>
      </trkpt>
      <trkpt lat="43.9406" lon="5.22327">
        <ele>406.77</ele>
        <time>2021-03-22T12:00:04Z</time>
      </trkpt>
      <trkpt lat="43.94071" lon="5.2233">
        <ele>407.26</ele>
        <time>2021-03-22T12:00:15Z</time>
      </trkpt>
      <trkpt lat="43.94074" lon="5.2233">
        <ele>407.26</ele>
        <time>2021-03-22T12:00:18Z</time>
      </trkpt>
      <trkpt lat="43.94075" lon="5.22331">
        <ele>407.26</ele>
        <time>2021-03-22T12:00:19Z</time>
      </trkpt>
      <trkpt lat="43.94076" lon="5.22331">
        <ele>407.26</ele>
        <time>2021-03-22T12:00:20Z</time>
      </trkpt>
      <trkpt lat="43.94077" lon="5.22331">
        <ele>407.26</ele>
        <time>2021-03-22T12:00:21Z</time>
      </trkpt>
      <trkpt lat="43.94078" lon="5.22331">
        <ele>407.26</ele>
        <time>2021-03-22T12:00:22Z</time>
      </trkpt>
      <trkpt lat="43.94097" lon="5.22326">
        <ele>407.26</ele>
        <time>2021-03-22T12:00:41Z</time>
      </trkpt>
      <trkpt lat="43.94104" lon="5.22325">
        <ele>407.74</ele>
        <time>2021-03-22T12:00:47Z</time>
      </trkpt>
      <trkpt lat="43.9412" lon="5.22314">
        <ele>407.74</ele>
        <time>2021-03-22T12:01:05Z</time>
      </trkpt>
      <trkpt lat="43.94137" lon="5.22297">
        <ele>408.7</ele>
        <time>2021-03-22T12:01:24Z</time>
      </trkpt>
      <trkpt lat="43.94155" lon="5.22285">
        <ele>409.18</ele>
        <time>2021-03-22T12:01:42Z</time>
      </trkpt>
      <trkpt lat="43.94168" lon="5.22267">
        <ele>410.14</ele>
        <time>2021-03-22T12:02:02Z</time>
      </trkpt>
      <trkpt lat="43.94179" lon="5.22258">
        <ele>413.02</ele>
        <time>2021-03-22T12:02:19Z</time>
      </trkpt>
      <trkpt lat="43.94197" lon="5.22245">
        <ele>415.43</ele>
        <time>2021-03-22T12:02:41Z</time>
      </trkpt>
      <trkpt lat="43.94208" lon="5.22247">
        <ele>417.35</ele>
        <time>2021-03-22T12:02:57Z</time>
      </trkpt>
      <trkpt lat="43.94227" lon="5.22249">
        <ele>416.39</ele>
        <time>2021-03-22T12:03:17Z</time>
      </trkpt>
      <trkpt lat="43.9423" lon="5.22252">
        <ele>415.91</ele>
        <time>2021-03-22T12:03:21Z</time>
      </trkpt>
      <trkpt lat="43.94242" lon="5.22265">
        <ele>414.95</ele>
        <time>2021-03-22T12:03:34Z</time>
      </trkpt>
      <trkpt lat="43.94251" lon="5.22284">
        <ele>414.95</ele>
        <time>2021-03-22T12:03:46Z</time>
      </trkpt>
      <trkpt lat="43.94263" lon="5.22308">
        <ele>415.43</ele>
        <time>2021-03-22T12:04:05Z</time>
      </trkpt>
      <trkpt lat="43.94262" lon="5.22314">
        <ele>414.95</ele>
        <time>2021-03-22T12:04:09Z</time>
      </trkpt>
      <trkpt lat="43.94261" lon="5.22322">
        <ele>414.95</ele>
        <time>2021-03-22T12:04:15Z</time>
      </trkpt>
      <trkpt lat="43.94262" lon="5.22342">
        <ele>414.95</ele>
        <time>2021-03-22T12:04:30Z</time>
      </trkpt>
      <trkpt lat="43.94255" lon="5.22349">
        <ele>414.47</ele>
        <time>2021-03-22T12:04:49Z</time>
      </trkpt>
      <trkpt lat="43.94246" lon="5.22365">
        <ele>414.47</ele>
        <time>2021-03-22T12:05:08Z</time>
      </trkpt>
      <trkpt lat="43.94252" lon="5.2238">
        <ele>413.5</ele>
        <time>2021-03-22T12:05:17Z</time>
      </trkpt>
      <trkpt lat="43.94257" lon="5.22387">
        <ele>414.47</ele>
        <time>2021-03-22T12:05:23Z</time>
      </trkpt>
      <trkpt lat="43.94258" lon="5.22389">
        <ele>414.47</ele>
        <time>2021-03-22T12:05:24Z</time>
      </trkpt>
      <trkpt lat="43.94269" lon="5.22409">
        <ele>414.95</ele>
        <time>2021-03-22T12:05:39Z</time>
      </trkpt>
      <trkpt lat="43.94282" lon="5.22429">
        <ele>415.43</ele>
        <time>2021-03-22T12:05:57Z</time>
      </trkpt>
      <trkpt lat="43.94304" lon="5.22442">
        <ele>415.43</ele>
        <time>2021-03-22T12:06:16Z</time>
      </trkpt>
      <trkpt lat="43.94312" lon="5.22445">
        <ele>415.43</ele>
        <time>2021-03-22T12:06:28Z</time>
      </trkpt>
      <trkpt lat="43.94323" lon="5.22444">
        <ele>415.43</ele>
        <time>2021-03-22T12:06:39Z</time>
      </trkpt>
      <trkpt lat="43.94334" lon="5.2244">
        <ele>416.87</ele>
        <time>2021-03-22T12:06:51Z</time>
      </trkpt>
      <trkpt lat="43.94358" lon="5.22429">
        <ele>416.87</ele>
        <time>2021-03-22T12:07:08Z</time>
      </trkpt>
      <trkpt lat="43.94365" lon="5.22426">
        <ele>416.87</ele>
        <time>2021-03-22T12:07:15Z</time>
      </trkpt>
      <trkpt lat="43.94367" lon="5.22424">
        <ele>416.87</ele>
        <time>2021-03-22T12:07:16Z</time>
      </trkpt>
      <trkpt lat="43.94368" lon="5.22423">
        <ele>416.87</ele>
        <time>2021-03-22T12:07:17Z</time>
      </trkpt>
      <trkpt lat="43.94369" lon="5.22422">
        <ele>416.87</ele>
        <time>2021-03-22T12:07:18Z</time>
      </trkpt>
      <trkpt lat="43.94371" lon="5.22421">
        <ele>417.35</ele>
        <time>2021-03-22T12:07:19Z</time>
      </trkpt>
      <trkpt lat="43.94389" lon="5.22412">
        <ele>417.83</ele>
        <time>2021-03-22T12:07:36Z</time>
      </trkpt>
      <trkpt lat="43.94399" lon="5.22409">
        <ele>418.31</ele>
        <time>2021-03-22T12:07:49Z</time>
      </trkpt>
      <trkpt lat="43.94418" lon="5.22427">
        <ele>417.83</ele>
        <time>2021-03-22T12:08:07Z</time>
      </trkpt>
      <trkpt lat="43.94435" lon="5.22438">
        <ele>417.35</ele>
        <time>2021-03-22T12:08:21Z</time>
      </trkpt>
      <trkpt lat="43.94448" lon="5.22454">
        <ele>418.79</ele>
        <time>2021-03-22T12:08:39Z</time>
      </trkpt>
      <trkpt lat="43.94456" lon="5.22461">
        <ele>418.31</ele>
        <time>2021-03-22T12:08:50Z</time>
      </trkpt>
      <trkpt lat="43.9447" lon="5.22468">
        <ele>418.79</ele>
        <time>2021-03-22T12:09:04Z</time>
      </trkpt>
      <trkpt lat="43.94483" lon="5.22484">
        <ele>420.23</ele>
        <time>2021-03-22T12:09:24Z</time>
      </trkpt>
      <trkpt lat="43.94498" lon="5.22493">
        <ele>422.16</ele>
        <time>2021-03-22T12:09:43Z</time>
      </trkpt>
      <trkpt lat="43.94502" lon="5.22501">
        <ele>422.16</ele>
        <time>2021-03-22T12:10:02Z</time>
      </trkpt>
      <trkpt lat="43.94502" lon="5.22518">
        <ele>423.12</ele>
        <time>2021-03-22T12:10:21Z</time>
      </trkpt>
      <trkpt lat="43.94501" lon="5.22514">
        <ele>425.04</ele>
        <time>2021-03-22T12:10:39Z</time>
      </trkpt>
      <trkpt lat="43.94502" lon="5.22499">
        <ele>423.12</ele>
        <time>2021-03-22T12:10:55Z</time>
      </trkpt>
      <trkpt lat="43.94503" lon="5.22499">
        <ele>421.19</ele>
        <time>2021-03-22T12:11:19Z</time>
      </trkpt>
      <trkpt lat="43.94502" lon="5.22501">
        <ele>422.64</ele>
        <time>2021-03-22T12:11:46Z</time>
      </trkpt>
      <trkpt lat="43.94505" lon="5.22503">
        <ele>423.12</ele>
        <time>2021-03-22T12:12:16Z</time>
      </trkpt>
      <trkpt lat="43.94505" lon="5.22502">
        <ele>422.64</ele>
        <time>2021-03-22T12:12:43Z</time>
      </trkpt>
      <trkpt lat="43.94502" lon="5.22504">
        <ele>422.64</ele>
        <time>2021-03-22T12:13:09Z</time>
      </trkpt>
      <trkpt lat="43.94502" lon="5.22503">
        <ele>422.64</ele>
        <time>2021-03-22T12:13:21Z</time>
      </trkpt>
      <trkpt lat="43.94496" lon="5.22494">
        <ele>422.64</ele>
        <time>2021-03-22T12:13:39Z</time>
      </trkpt>
      <trkpt lat="43.9449" lon="5.22477">
        <ele>422.64</ele>
        <time>2021-03-22T12:14:00Z</time>
      </trkpt>
      <trkpt lat="43.9448" lon="5.22466">
        <ele>419.75</ele>
        <time>2021-03-22T12:14:12Z</time>
      </trkpt>
      <trkpt lat="43.9446" lon="5.22463">
        <ele>418.79</ele>
        <time>2021-03-22T12:14:28Z</time>
      </trkpt>
      <trkpt lat="43.94449" lon="5.22439">
        <ele>417.83</ele>
        <time>2021-03-22T12:14:49Z</time>
      </trkpt>
      <trkpt lat="43.94438" lon="5.22427">
        <ele>418.31</ele>
        <time>2021-03-22T12:15:00Z</time>
      </trkpt>
      <trkpt lat="43.94426" lon="5.22424">
        <ele>417.83</ele>
        <time>2021-03-22T12:15:12Z</time>
      </trkpt>
      <trkpt lat="43.94408" lon="5.22405">
        <ele>417.83</ele>
        <time>2021-03-22T12:15:31Z</time>
      </trkpt>
      <trkpt lat="43.94391" lon="5.22399">
        <ele>417.35</ele>
        <time>2021-03-22T12:15:45Z</time>
      </trkpt>
      <trkpt lat="43.94368" lon="5.22407">
        <ele>417.83</ele>
        <time>2021-03-22T12:16:08Z</time>
      </trkpt>
      <trkpt lat="43.94366" lon="5.22408">
        <ele>417.83</ele>
        <time>2021-03-22T12:16:09Z</time>
      </trkpt>
      <trkpt lat="43.94365" lon="5.22409">
        <ele>417.83</ele>
        <time>2021-03-22T12:16:10Z</time>
      </trkpt>
      <trkpt lat="43.94349" lon="5.22418">
        <ele>417.35</ele>
        <time>2021-03-22T12:16:23Z</time>
      </trkpt>
      <trkpt lat="43.94332" lon="5.22427">
        <ele>416.87</ele>
        <time>2021-03-22T12:16:39Z</time>
      </trkpt>
      <trkpt lat="43.94311" lon="5.22425">
        <ele>416.87</ele>
        <time>2021-03-22T12:16:53Z</time>
      </trkpt>
      <trkpt lat="43.94299" lon="5.22423">
        <ele>416.39</ele>
        <time>2021-03-22T12:17:05Z</time>
      </trkpt>
      <trkpt lat="43.94296" lon="5.22422">
        <ele>416.39</ele>
        <time>2021-03-22T12:17:07Z</time>
      </trkpt>
      <trkpt lat="43.9428" lon="5.22416">
        <ele>416.39</ele>
        <time>2021-03-22T12:17:23Z</time>
      </trkpt>
      <trkpt lat="43.94271" lon="5.22404">
        <ele>416.39</ele>
        <time>2021-03-22T12:17:34Z</time>
      </trkpt>
      <trkpt lat="43.94255" lon="5.22381">
        <ele>415.43</ele>
        <time>2021-03-22T12:17:53Z</time>
      </trkpt>
      <trkpt lat="43.94248" lon="5.22361">
        <ele>414.47</ele>
        <time>2021-03-22T12:18:08Z</time>
      </trkpt>
      <trkpt lat="43.94257" lon="5.22354">
        <ele>414.95</ele>
        <time>2021-03-22T12:18:19Z</time>
      </trkpt>
      <trkpt lat="43.94267" lon="5.22347">
        <ele>414.95</ele>
        <time>2021-03-22T12:18:32Z</time>
      </trkpt>
      <trkpt lat="43.94267" lon="5.22332">
        <ele>415.43</ele>
        <time>2021-03-22T12:18:41Z</time>
      </trkpt>
      <trkpt lat="43.94266" lon="5.22313">
        <ele>415.43</ele>
        <time>2021-03-22T12:18:55Z</time>
      </trkpt>
      <trkpt lat="43.9426" lon="5.22294">
        <ele>414.95</ele>
        <time>2021-03-22T12:19:08Z</time>
      </trkpt>
      <trkpt lat="43.94246" lon="5.22272">
        <ele>415.91</ele>
        <time>2021-03-22T12:19:25Z</time>
      </trkpt>
      <trkpt lat="43.94244" lon="5.22266">
        <ele>415.91</ele>
        <time>2021-03-22T12:19:29Z</time>
      </trkpt>
      <trkpt lat="43.94224" lon="5.22245">
        <ele>416.39</ele>
        <time>2021-03-22T12:19:48Z</time>
      </trkpt>
      <trkpt lat="43.94208" lon="5.2224">
        <ele>416.87</ele>
        <time>2021-03-22T12:20:05Z</time>
      </trkpt>
      <trkpt lat="43.94199" lon="5.22235">
        <ele>417.83</ele>
        <time>2021-03-22T12:20:23Z</time>
      </trkpt>
      <trkpt lat="43.94188" lon="5.22248">
        <ele>416.87</ele>
        <time>2021-03-22T12:20:36Z</time>
      </trkpt>
      <trkpt lat="43.94172" lon="5.22262">
        <ele>413.5</ele>
        <time>2021-03-22T12:20:55Z</time>
      </trkpt>
      <trkpt lat="43.94163" lon="5.22276">
        <ele>411.58</ele>
        <time>2021-03-22T12:21:09Z</time>
      </trkpt>
      <trkpt lat="43.94148" lon="5.22285">
        <ele>410.62</ele>
        <time>2021-03-22T12:21:22Z</time>
      </trkpt>
      <trkpt lat="43.94136" lon="5.22294">
        <ele>409.18</ele>
        <time>2021-03-22T12:21:33Z</time>
      </trkpt>
      <trkpt lat="43.94135" lon="5.22295">
        <ele>409.18</ele>
        <time>2021-03-22T12:21:34Z</time>
      </trkpt>
      <trkpt lat="43.94123" lon="5.22309">
        <ele>409.66</ele>
        <time>2021-03-22T12:21:46Z</time>
      </trkpt>
      <trkpt lat="43.94122" lon="5.2231">
        <ele>409.66</ele>
        <time>2021-03-22T12:21:47Z</time>
      </trkpt>
      <trkpt lat="43.94119" lon="5.22313">
        <ele>409.18</ele>
        <time>2021-03-22T12:21:50Z</time>
      </trkpt>
      <trkpt lat="43.94118" lon="5.22314">
        <ele>409.18</ele>
        <time>2021-03-22T12:21:51Z</time>
      </trkpt>
      <trkpt lat="43.941" lon="5.22322">
        <ele>409.18</ele>
        <time>2021-03-22T12:22:07Z</time>
      </trkpt>
      <trkpt lat="43.94095" lon="5.22324">
        <ele>409.66</ele>
        <time>2021-03-22T12:22:11Z</time>
      </trkpt>
      <trkpt lat="43.94076" lon="5.22329">
        <ele>408.22</ele>
        <time>2021-03-22T12:22:27Z</time>
      </trkpt>
      <trkpt lat="43.94059" lon="5.22323">
        <ele>408.22</ele>
        <time>2021-03-22T12:22:43Z</time>
      </trkpt>
      <trkpt lat="43.94039" lon="5.22311">
        <ele>408.22</ele>
        <time>2021-03-22T12:23:01Z</time>
      </trkpt>
      <trkpt lat="43.94029" lon="5.22292">
        <ele>407.74</ele>
        <time>2021-03-22T12:23:17Z</time>
      </trkpt>
      <trkpt lat="43.94028" lon="5.2229">
        <ele>407.74</ele>
        <time>2021-03-22T12:23:18Z</time>
      </trkpt>
      <trkpt lat="43.94026" lon="5.22281">
        <ele>407.74</ele>
        <time>2021-03-22T12:23:23Z</time>
      </trkpt>
      <trkpt lat="43.94029" lon="5.22256">
        <ele>407.26</ele>
        <time>2021-03-22T12:23:38Z</time>
      </trkpt>
      <trkpt lat="43.94026" lon="5.22244">
        <ele>407.26</ele>
        <time>2021-03-22T12:23:46Z</time>
      </trkpt>
      <trkpt lat="43.94024" lon="5.22224">
        <ele>407.26</ele>
        <time>2021-03-22T12:23:58Z</time>
      </trkpt>
      <trkpt lat="43.94023" lon="5.22208">
        <ele>407.26</ele>
        <time>2021-03-22T12:24:06Z</time>
      </trkpt>
      <trkpt lat="43.94023" lon="5.22206">
        <ele>407.74</ele>
        <time>2021-03-22T12:24:07Z</time>
      </trkpt>
      <trkpt lat="43.94023" lon="5.22204">
        <ele>407.74</ele>
        <time>2021-03-22T12:24:08Z</time>
      </trkpt>
      <trkpt lat="43.94023" lon="5.22202">
        <ele>408.22</ele>
        <time>2021-03-22T12:24:24Z</time>
      </trkpt>
      <trkpt lat="43.94023" lon="5.22203">
        <ele>406.77</ele>
        <time>2021-03-22T12:24:52Z</time>
      </trkpt>
      <trkpt lat="43.94019" lon="5.22204">
        <ele>405.33</ele>
        <time>2021-03-22T12:25:15Z</time>
      </trkpt>
      <trkpt lat="43.94016" lon="5.22203">
        <ele>405.33</ele>
        <time>2021-03-22T12:25:35Z</time>
      </trkpt>
      <trkpt lat="43.94018" lon="5.22202">
        <ele>409.18</ele>
        <time>2021-03-22T12:25:38Z</time>
      </trkpt>
      <trkpt lat="43.94022" lon="5.222">
        <ele>408.22</ele>
        <time>2021-03-22T12:26:03Z</time>
      </trkpt>
      <trkpt lat="43.9402" lon="5.222">
        <ele>408.22</ele>
        <time>2021-03-22T12:26:31Z</time>
      </trkpt>
      <trkpt lat="43.94023" lon="5.22199">
        <ele>407.74</ele>
        <time>2021-03-22T12:27:04Z</time>
      </trkpt>
      <trkpt lat="43.94022" lon="5.22199">
        <ele>407.74</ele>
        <time>2021-03-22T12:27:30Z</time>
      </trkpt>
      <trkpt lat="43.9402" lon="5.22194">
        <ele>407.26</ele>
        <time>2021-03-22T12:27:55Z</time>
      </trkpt>
      <trkpt lat="43.94017" lon="5.22187">
        <ele>406.77</ele>
        <time>2021-03-22T12:28:00Z</time>
      </trkpt>
      <trkpt lat="43.94021" lon="5.22175">
        <ele>408.22</ele>
        <time>2021-03-22T12:28:13Z</time>
      </trkpt>
      <trkpt lat="43.94023" lon="5.22164">
        <ele>410.14</ele>
        <time>2021-03-22T12:28:23Z</time>
      </trkpt>
      <trkpt lat="43.94018" lon="5.22147">
        <ele>413.02</ele>
        <time>2021-03-22T12:28:41Z</time>
      </trkpt>
      <trkpt lat="43.93999" lon="5.22135">
        <ele>415.91</ele>
        <time>2021-03-22T12:29:01Z</time>
      </trkpt>
      <trkpt lat="43.93987" lon="5.2213">
        <ele>418.31</ele>
        <time>2021-03-22T12:29:16Z</time>
      </trkpt>
      <trkpt lat="43.93971" lon="5.22129">
        <ele>420.23</ele>
        <time>2021-03-22T12:29:32Z</time>
      </trkpt>
      <trkpt lat="43.93961" lon="5.22128">
        <ele>420.23</ele>
        <time>2021-03-22T12:29:49Z</time>
      </trkpt>
      <trkpt lat="43.93943" lon="5.22125">
        <ele>420.71</ele>
        <time>2021-03-22T12:30:08Z</time>
      </trkpt>
      <trkpt lat="43.93931" lon="5.22122">
        <ele>421.68</ele>
        <time>2021-03-22T12:30:19Z</time>
      </trkpt>
      <trkpt lat="43.93919" lon="5.22124">
        <ele>422.16</ele>
        <time>2021-03-22T12:30:30Z</time>
      </trkpt>
      <trkpt lat="43.93905" lon="5.22114">
        <ele>422.16</ele>
        <time>2021-03-22T12:30:47Z</time>
      </trkpt>
      <trkpt lat="43.93901" lon="5.22105">
        <ele>424.08</ele>
        <time>2021-03-22T12:31:08Z</time>
      </trkpt>
      <trkpt lat="43.93909" lon="5.22105">
        <ele>425.04</ele>
        <time>2021-03-22T12:31:25Z</time>
      </trkpt>
      <trkpt lat="43.93907" lon="5.2209">
        <ele>428.4</ele>
        <time>2021-03-22T12:31:37Z</time>
      </trkpt>
      <trkpt lat="43.93905" lon="5.22076">
        <ele>431.29</ele>
        <time>2021-03-22T12:31:49Z</time>
      </trkpt>
      <trkpt lat="43.93899" lon="5.22059">
        <ele>434.17</ele>
        <time>2021-03-22T12:32:13Z</time>
      </trkpt>
      <trkpt lat="43.939" lon="5.22041">
        <ele>437.54</ele>
        <time>2021-03-22T12:32:32Z</time>
      </trkpt>
      <trkpt lat="43.93904" lon="5.22026">
        <ele>440.9</ele>
        <time>2021-03-22T12:32:47Z</time>
      </trkpt>
      <trkpt lat="43.93901" lon="5.22006">
        <ele>443.79</ele>
        <time>2021-03-22T12:33:05Z</time>
      </trkpt>
      <trkpt lat="43.93899" lon="5.21989">
        <ele>445.23</ele>
        <time>2021-03-22T12:33:22Z</time>
      </trkpt>
      <trkpt lat="43.93901" lon="5.21969">
        <ele>446.67</ele>
        <time>2021-03-22T12:33:40Z</time>
      </trkpt>
      <trkpt lat="43.93901" lon="5.21953">
        <ele>448.59</ele>
        <time>2021-03-22T12:34:01Z</time>
      </trkpt>
      <trkpt lat="43.93902" lon="5.21928">
        <ele>448.59</ele>
        <time>2021-03-22T12:34:22Z</time>
      </trkpt>
      <trkpt lat="43.93903" lon="5.21914">
        <ele>450.03</ele>
        <time>2021-03-22T12:34:38Z</time>
      </trkpt>
      <trkpt lat="43.93908" lon="5.21904">
        <ele>451.48</ele>
        <time>2021-03-22T12:34:47Z</time>
      </trkpt>
      <trkpt lat="43.9391" lon="5.21897">
        <ele>451</ele>
        <time>2021-03-22T12:34:53Z</time>
      </trkpt>
      <trkpt lat="43.93907" lon="5.21897">
        <ele>452.44</ele>
        <time>2021-03-22T12:35:05Z</time>
      </trkpt>
      <trkpt lat="43.93905" lon="5.21896">
        <ele>452.44</ele>
        <time>2021-03-22T12:35:39Z</time>
      </trkpt>
      <trkpt lat="43.93894" lon="5.21903">
        <ele>453.4</ele>
        <time>2021-03-22T12:36:02Z</time>
      </trkpt>
      <trkpt lat="43.93891" lon="5.21907">
        <ele>453.4</ele>
        <time>2021-03-22T12:36:07Z</time>
      </trkpt>
      <trkpt lat="43.93881" lon="5.21924">
        <ele>452.92</ele>
        <time>2021-03-22T12:36:21Z</time>
      </trkpt>
      <trkpt lat="43.9388" lon="5.21928">
        <ele>451</ele>
        <time>2021-03-22T12:36:28Z</time>
      </trkpt>
      <trkpt lat="43.93876" lon="5.21943">
        <ele>451</ele>
        <time>2021-03-22T12:36:41Z</time>
      </trkpt>
      <trkpt lat="43.93873" lon="5.21949">
        <ele>451</ele>
        <time>2021-03-22T12:36:44Z</time>
      </trkpt>
      <trkpt lat="43.93872" lon="5.21951">
        <ele>451</ele>
        <time>2021-03-22T12:36:45Z</time>
      </trkpt>
      <trkpt lat="43.93871" lon="5.21954">
        <ele>450.03</ele>
        <time>2021-03-22T12:36:46Z</time>
      </trkpt>
      <trkpt lat="43.9386" lon="5.21968">
        <ele>447.15</ele>
        <time>2021-03-22T12:37:00Z</time>
      </trkpt>
      <trkpt lat="43.93851" lon="5.21973">
        <ele>447.15</ele>
        <time>2021-03-22T12:37:15Z</time>
      </trkpt>
      <trkpt lat="43.93843" lon="5.21975">
        <ele>448.11</ele>
        <time>2021-03-22T12:37:23Z</time>
      </trkpt>
      <trkpt lat="43.93835" lon="5.21984">
        <ele>450.03</ele>
        <time>2021-03-22T12:37:37Z</time>
      </trkpt>
      <trkpt lat="43.93828" lon="5.21988">
        <ele>451</ele>
        <time>2021-03-22T12:37:51Z</time>
      </trkpt>
      <trkpt lat="43.9382" lon="5.21986">
        <ele>453.88</ele>
        <time>2021-03-22T12:38:03Z</time>
      </trkpt>
      <trkpt lat="43.93818" lon="5.21983">
        <ele>457.24</ele>
        <time>2021-03-22T12:38:14Z</time>
      </trkpt>
      <trkpt lat="43.93815" lon="5.21981">
        <ele>458.21</ele>
        <time>2021-03-22T12:38:19Z</time>
      </trkpt>
      <trkpt lat="43.93809" lon="5.21975">
        <ele>461.09</ele>
        <time>2021-03-22T12:38:36Z</time>
      </trkpt>
      <trkpt lat="43.938" lon="5.21967">
        <ele>463.49</ele>
        <time>2021-03-22T12:38:57Z</time>
      </trkpt>
      <trkpt lat="43.938" lon="5.21966">
        <ele>463.97</ele>
        <time>2021-03-22T12:39:28Z</time>
      </trkpt>
      <trkpt lat="43.938" lon="5.21966">
        <ele>463.49</ele>
        <time>2021-03-22T12:39:50Z</time>
      </trkpt>
      <trkpt lat="43.93801" lon="5.21962">
        <ele>464.45</ele>
        <time>2021-03-22T12:40:14Z</time>
      </trkpt>
      <trkpt lat="43.938" lon="5.21966">
        <ele>464.45</ele>
        <time>2021-03-22T12:40:38Z</time>
      </trkpt>
      <trkpt lat="43.93799" lon="5.21972">
        <ele>465.42</ele>
        <time>2021-03-22T12:41:09Z</time>
      </trkpt>
      <trkpt lat="43.9379" lon="5.21972">
        <ele>464.93</ele>
        <time>2021-03-22T12:41:29Z</time>
      </trkpt>
      <trkpt lat="43.93779" lon="5.21961">
        <ele>467.82</ele>
        <time>2021-03-22T12:41:45Z</time>
      </trkpt>
      <trkpt lat="43.93783" lon="5.21953">
        <ele>470.7</ele>
        <time>2021-03-22T12:41:56Z</time>
      </trkpt>
      <trkpt lat="43.93796" lon="5.21938">
        <ele>473.59</ele>
        <time>2021-03-22T12:42:19Z</time>
      </trkpt>
      <trkpt lat="43.93788" lon="5.21933">
        <ele>475.51</ele>
        <time>2021-03-22T12:42:33Z</time>
      </trkpt>
      <trkpt lat="43.93776" lon="5.21926">
        <ele>477.91</ele>
        <time>2021-03-22T12:42:48Z</time>
      </trkpt>
      <trkpt lat="43.93767" lon="5.21915">
        <ele>481.28</ele>
        <time>2021-03-22T12:43:07Z</time>
      </trkpt>
      <trkpt lat="43.9376" lon="5.21903">
        <ele>484.16</ele>
        <time>2021-03-22T12:43:24Z</time>
      </trkpt>
      <trkpt lat="43.93756" lon="5.21895">
        <ele>487.05</ele>
        <time>2021-03-22T12:43:45Z</time>
      </trkpt>
      <trkpt lat="43.93756" lon="5.21895">
        <ele>486.56</ele>
        <time>2021-03-22T12:44:15Z</time>
      </trkpt>
      <trkpt lat="43.93752" lon="5.21899">
        <ele>486.56</ele>
        <time>2021-03-22T12:44:46Z</time>
      </trkpt>
      <trkpt lat="43.93753" lon="5.21896">
        <ele>486.56</ele>
        <time>2021-03-22T12:45:18Z</time>
      </trkpt>
      <trkpt lat="43.93754" lon="5.21892">
        <ele>487.05</ele>
        <time>2021-03-22T12:45:42Z</time>
      </trkpt>
      <trkpt lat="43.93753" lon="5.21877">
        <ele>489.45</ele>
        <time>2021-03-22T12:45:58Z</time>
      </trkpt>
      <trkpt lat="43.93757" lon="5.21868">
        <ele>490.89</ele>
        <time>2021-03-22T12:46:10Z</time>
      </trkpt>
      <trkpt lat="43.93762" lon="5.21857">
        <ele>491.85</ele>
        <time>2021-03-22T12:46:18Z</time>
      </trkpt>
      <trkpt lat="43.93766" lon="5.21832">
        <ele>491.85</ele>
        <time>2021-03-22T12:46:35Z</time>
      </trkpt>
      <trkpt lat="43.93766" lon="5.21823">
        <ele>491.37</ele>
        <time>2021-03-22T12:46:43Z</time>
      </trkpt>
      <trkpt lat="43.9376" lon="5.21801">
        <ele>490.89</ele>
        <time>2021-03-22T12:47:03Z</time>
      </trkpt>
      <trkpt lat="43.93755" lon="5.2178">
        <ele>489.45</ele>
        <time>2021-03-22T12:47:22Z</time>
      </trkpt>
      <trkpt lat="43.93754" lon="5.21776">
        <ele>489.45</ele>
        <time>2021-03-22T12:47:25Z</time>
      </trkpt>
      <trkpt lat="43.93751" lon="5.21758">
        <ele>489.93</ele>
        <time>2021-03-22T12:47:38Z</time>
      </trkpt>
      <trkpt lat="43.93749" lon="5.21729">
        <ele>489.93</ele>
        <time>2021-03-22T12:47:58Z</time>
      </trkpt>
      <trkpt lat="43.93749" lon="5.21725">
        <ele>490.41</ele>
        <time>2021-03-22T12:48:01Z</time>
      </trkpt>
      <trkpt lat="43.9374" lon="5.21706">
        <ele>490.89</ele>
        <time>2021-03-22T12:48:19Z</time>
      </trkpt>
      <trkpt lat="43.93736" lon="5.21695">
        <ele>489.93</ele>
        <time>2021-03-22T12:48:38Z</time>
      </trkpt>
      <trkpt lat="43.93724" lon="5.21693">
        <ele>492.81</ele>
        <time>2021-03-22T12:49:00Z</time>
      </trkpt>
      <trkpt lat="43.93714" lon="5.21688">
        <ele>495.7</ele>
        <time>2021-03-22T12:49:16Z</time>
      </trkpt>
      <trkpt lat="43.93701" lon="5.21682">
        <ele>498.58</ele>
        <time>2021-03-22T12:49:36Z</time>
      </trkpt>
      <trkpt lat="43.93682" lon="5.2168">
        <ele>499.54</ele>
        <time>2021-03-22T12:49:59Z</time>
      </trkpt>
      <trkpt lat="43.9367" lon="5.21672">
        <ele>499.54</ele>
        <time>2021-03-22T12:50:14Z</time>
      </trkpt>
      <trkpt lat="43.93654" lon="5.21662">
        <ele>498.58</ele>
        <time>2021-03-22T12:50:34Z</time>
      </trkpt>
      <trkpt lat="43.9364" lon="5.21658">
        <ele>498.58</ele>
        <time>2021-03-22T12:50:53Z</time>
      </trkpt>
      <trkpt lat="43.93626" lon="5.21654">
        <ele>498.58</ele>
        <time>2021-03-22T12:51:11Z</time>
      </trkpt>
      <trkpt lat="43.93613" lon="5.21645">
        <ele>498.58</ele>
        <time>2021-03-22T12:51:28Z</time>
      </trkpt>
      <trkpt lat="43.93601" lon="5.21649">
        <ele>498.58</ele>
        <time>2021-03-22T12:51:48Z</time>
      </trkpt>
      <trkpt lat="43.93595" lon="5.21651">
        <ele>498.58</ele>
        <time>2021-03-22T12:51:56Z</time>
      </trkpt>
      <trkpt lat="43.93593" lon="5.21653">
        <ele>498.58</ele>
        <time>2021-03-22T12:52:24Z</time>
      </trkpt>
      <trkpt lat="43.93593" lon="5.21655">
        <ele>501.46</ele>
        <time>2021-03-22T12:52:35Z</time>
      </trkpt>
      <trkpt lat="43.93581" lon="5.21655">
        <ele>500.98</ele>
        <time>2021-03-22T12:53:00Z</time>
      </trkpt>
      <trkpt lat="43.93573" lon="5.21647">
        <ele>501.95</ele>
        <time>2021-03-22T12:53:16Z</time>
      </trkpt>
      <trkpt lat="43.93563" lon="5.21633">
        <ele>502.43</ele>
        <time>2021-03-22T12:53:36Z</time>
      </trkpt>
      <trkpt lat="43.93553" lon="5.21622">
        <ele>503.87</ele>
        <time>2021-03-22T12:53:56Z</time>
      </trkpt>
      <trkpt lat="43.93536" lon="5.21599">
        <ele>504.83</ele>
        <time>2021-03-22T12:54:20Z</time>
      </trkpt>
      <trkpt lat="43.93526" lon="5.21588">
        <ele>504.35</ele>
        <time>2021-03-22T12:54:35Z</time>
      </trkpt>
      <trkpt lat="43.93507" lon="5.21573">
        <ele>503.39</ele>
        <time>2021-03-22T12:54:59Z</time>
      </trkpt>
      <trkpt lat="43.93494" lon="5.21569">
        <ele>502.43</ele>
        <time>2021-03-22T12:55:15Z</time>
      </trkpt>
      <trkpt lat="43.93479" lon="5.2156">
        <ele>501.95</ele>
        <time>2021-03-22T12:55:34Z</time>
      </trkpt>
      <trkpt lat="43.93464" lon="5.21549">
        <ele>501.95</ele>
        <time>2021-03-22T12:55:53Z</time>
      </trkpt>
      <trkpt lat="43.93443" lon="5.21539">
        <ele>501.95</ele>
        <time>2021-03-22T12:56:15Z</time>
      </trkpt>
      <trkpt lat="43.93428" lon="5.21534">
        <ele>500.02</ele>
        <time>2021-03-22T12:56:31Z</time>
      </trkpt>
      <trkpt lat="43.93417" lon="5.21527">
        <ele>498.58</ele>
        <time>2021-03-22T12:56:43Z</time>
      </trkpt>
      <trkpt lat="43.93411" lon="5.21523">
        <ele>499.06</ele>
        <time>2021-03-22T12:56:50Z</time>
      </trkpt>
      <trkpt lat="43.93395" lon="5.21507">
        <ele>498.1</ele>
        <time>2021-03-22T12:57:07Z</time>
      </trkpt>
      <trkpt lat="43.93384" lon="5.21496">
        <ele>498.1</ele>
        <time>2021-03-22T12:57:20Z</time>
      </trkpt>
      <trkpt lat="43.93376" lon="5.21488">
        <ele>497.14</ele>
        <time>2021-03-22T12:57:33Z</time>
      </trkpt>
      <trkpt lat="43.93367" lon="5.2147">
        <ele>496.18</ele>
        <time>2021-03-22T12:57:50Z</time>
      </trkpt>
      <trkpt lat="43.93361" lon="5.21456">
        <ele>494.26</ele>
        <time>2021-03-22T12:58:06Z</time>
      </trkpt>
      <trkpt lat="43.9335" lon="5.21442">
        <ele>493.29</ele>
        <time>2021-03-22T12:58:20Z</time>
      </trkpt>
      <trkpt lat="43.9334" lon="5.21428">
        <ele>490.89</ele>
        <time>2021-03-22T12:58:34Z</time>
      </trkpt>
      <trkpt lat="43.93332" lon="5.21417">
        <ele>488.97</ele>
        <time>2021-03-22T12:58:44Z</time>
      </trkpt>
      <trkpt lat="43.9333" lon="5.21416">
        <ele>488.97</ele>
        <time>2021-03-22T12:58:45Z</time>
      </trkpt>
      <trkpt lat="43.93329" lon="5.21415">
        <ele>488.97</ele>
        <time>2021-03-22T12:58:46Z</time>
      </trkpt>
      <trkpt lat="43.9332" lon="5.21401">
        <ele>486.56</ele>
        <time>2021-03-22T12:59:00Z</time>
      </trkpt>
      <trkpt lat="43.93308" lon="5.21385">
        <ele>483.68</ele>
        <time>2021-03-22T12:59:17Z</time>
      </trkpt>
      <trkpt lat="43.93299" lon="5.21378">
        <ele>480.32</ele>
        <time>2021-03-22T12:59:30Z</time>
      </trkpt>
      <trkpt lat="43.93288" lon="5.21367">
        <ele>477.91</ele>
        <time>2021-03-22T12:59:47Z</time>
      </trkpt>
      <trkpt lat="43.93276" lon="5.21361">
        <ele>475.03</ele>
        <time>2021-03-22T13:00:02Z</time>
      </trkpt>
      <trkpt lat="43.93267" lon="5.21358">
        <ele>472.14</ele>
        <time>2021-03-22T13:00:14Z</time>
      </trkpt>
      <trkpt lat="43.93265" lon="5.21358">
        <ele>472.14</ele>
        <time>2021-03-22T13:00:15Z</time>
      </trkpt>
      <trkpt lat="43.93254" lon="5.21351">
        <ele>468.78</ele>
        <time>2021-03-22T13:00:28Z</time>
      </trkpt>
      <trkpt lat="43.93239" lon="5.21345">
        <ele>466.86</ele>
        <time>2021-03-22T13:00:44Z</time>
      </trkpt>
      <trkpt lat="43.93232" lon="5.21333">
        <ele>463.49</ele>
        <time>2021-03-22T13:00:56Z</time>
      </trkpt>
      <trkpt lat="43.93223" lon="5.21324">
        <ele>460.61</ele>
        <time>2021-03-22T13:01:19Z</time>
      </trkpt>
      <trkpt lat="43.93227" lon="5.21325">
        <ele>461.09</ele>
        <time>2021-03-22T13:01:46Z</time>
      </trkpt>
      <trkpt lat="43.93226" lon="5.21325">
        <ele>462.53</ele>
        <time>2021-03-22T13:01:49Z</time>
      </trkpt>
      <trkpt lat="43.93209" lon="5.21323">
        <ele>459.65</ele>
        <time>2021-03-22T13:02:04Z</time>
      </trkpt>
      <trkpt lat="43.93198" lon="5.21319">
        <ele>458.21</ele>
        <time>2021-03-22T13:02:18Z</time>
      </trkpt>
      <trkpt lat="43.93182" lon="5.21313">
        <ele>458.69</ele>
        <time>2021-03-22T13:02:32Z</time>
      </trkpt>
      <trkpt lat="43.93177" lon="5.21314">
        <ele>458.21</ele>
        <time>2021-03-22T13:02:35Z</time>
      </trkpt>
      <trkpt lat="43.93165" lon="5.21312">
        <ele>458.21</ele>
        <time>2021-03-22T13:02:48Z</time>
      </trkpt>
      <trkpt lat="43.93147" lon="5.21311">
        <ele>456.28</ele>
        <time>2021-03-22T13:03:03Z</time>
      </trkpt>
      <trkpt lat="43.93146" lon="5.2131">
        <ele>456.28</ele>
        <time>2021-03-22T13:03:04Z</time>
      </trkpt>
      <trkpt lat="43.93134" lon="5.21306">
        <ele>454.36</ele>
        <time>2021-03-22T13:03:19Z</time>
      </trkpt>
      <trkpt lat="43.93111" lon="5.21302">
        <ele>451.96</ele>
        <time>2021-03-22T13:03:41Z</time>
      </trkpt>
      <trkpt lat="43.931" lon="5.21297">
        <ele>450.03</ele>
        <time>2021-03-22T13:03:56Z</time>
      </trkpt>
      <trkpt lat="43.931" lon="5.21291">
        <ele>450.52</ele>
        <time>2021-03-22T13:04:25Z</time>
      </trkpt>
      <trkpt lat="43.93089" lon="5.2127">
        <ele>451</ele>
        <time>2021-03-22T13:04:41Z</time>
      </trkpt>
      <trkpt lat="43.93086" lon="5.21266">
        <ele>451</ele>
        <time>2021-03-22T13:04:45Z</time>
      </trkpt>
      <trkpt lat="43.93069" lon="5.21248">
        <ele>451</ele>
        <time>2021-03-22T13:05:02Z</time>
      </trkpt>
      <trkpt lat="43.93055" lon="5.2124">
        <ele>453.4</ele>
        <time>2021-03-22T13:05:19Z</time>
      </trkpt>
      <trkpt lat="43.93053" lon="5.21241">
        <ele>453.88</ele>
        <time>2021-03-22T13:05:20Z</time>
      </trkpt>
      <trkpt lat="43.93037" lon="5.2124">
        <ele>456.76</ele>
        <time>2021-03-22T13:05:37Z</time>
      </trkpt>
      <trkpt lat="43.93023" lon="5.21235">
        <ele>459.17</ele>
        <time>2021-03-22T13:05:53Z</time>
      </trkpt>
      <trkpt lat="43.93012" lon="5.21233">
        <ele>462.53</ele>
        <time>2021-03-22T13:06:07Z</time>
      </trkpt>
      <trkpt lat="43.93005" lon="5.21223">
        <ele>463.97</ele>
        <time>2021-03-22T13:06:23Z</time>
      </trkpt>
      <trkpt lat="43.93003" lon="5.21215">
        <ele>465.42</ele>
        <time>2021-03-22T13:06:42Z</time>
      </trkpt>
      <trkpt lat="43.93003" lon="5.21212">
        <ele>465.42</ele>
        <time>2021-03-22T13:07:27Z</time>
      </trkpt>
      <trkpt lat="43.93006" lon="5.21213">
        <ele>464.93</ele>
        <time>2021-03-22T13:08:33Z</time>
      </trkpt>
      <trkpt lat="43.93004" lon="5.21213">
        <ele>464.93</ele>
        <time>2021-03-22T13:09:06Z</time>
      </trkpt>
      <trkpt lat="43.93002" lon="5.21213">
        <ele>464.93</ele>
        <time>2021-03-22T13:09:36Z</time>
      </trkpt>
      <trkpt lat="43.93" lon="5.21212">
        <ele>464.93</ele>
        <time>2021-03-22T13:10:01Z</time>
      </trkpt>
      <trkpt lat="43.93" lon="5.21212">
        <ele>464.93</ele>
        <time>2021-03-22T13:10:31Z</time>
      </trkpt>
      <trkpt lat="43.92999" lon="5.21218">
        <ele>464.93</ele>
        <time>2021-03-22T13:10:57Z</time>
      </trkpt>
      <trkpt lat="43.92995" lon="5.21218">
        <ele>464.93</ele>
        <time>2021-03-22T13:11:30Z</time>
      </trkpt>
      <trkpt lat="43.93008" lon="5.21203">
        <ele>464.93</ele>
        <time>2021-03-22T13:11:55Z</time>
      </trkpt>
      <trkpt lat="43.93015" lon="5.21188">
        <ele>464.93</ele>
        <time>2021-03-22T13:12:11Z</time>
      </trkpt>
      <trkpt lat="43.93019" lon="5.21178">
        <ele>465.42</ele>
        <time>2021-03-22T13:12:19Z</time>
      </trkpt>
      <trkpt lat="43.9302" lon="5.21177">
        <ele>466.86</ele>
        <time>2021-03-22T13:12:20Z</time>
      </trkpt>
      <trkpt lat="43.93021" lon="5.21172">
        <ele>469.74</ele>
        <time>2021-03-22T13:12:24Z</time>
      </trkpt>
      <trkpt lat="43.93023" lon="5.21152">
        <ele>472.63</ele>
        <time>2021-03-22T13:12:43Z</time>
      </trkpt>
      <trkpt lat="43.93016" lon="5.21127">
        <ele>473.59</ele>
        <time>2021-03-22T13:13:02Z</time>
      </trkpt>
      <trkpt lat="43.93009" lon="5.21113">
        <ele>475.03</ele>
        <time>2021-03-22T13:13:17Z</time>
      </trkpt>
      <trkpt lat="43.93006" lon="5.21101">
        <ele>475.99</ele>
        <time>2021-03-22T13:13:27Z</time>
      </trkpt>
      <trkpt lat="43.93" lon="5.21092">
        <ele>476.47</ele>
        <time>2021-03-22T13:13:35Z</time>
      </trkpt>
      <trkpt lat="43.92989" lon="5.21084">
        <ele>476.47</ele>
        <time>2021-03-22T13:13:45Z</time>
      </trkpt>
      <trkpt lat="43.92984" lon="5.2108">
        <ele>475.99</ele>
        <time>2021-03-22T13:13:51Z</time>
      </trkpt>
      <trkpt lat="43.92973" lon="5.21071">
        <ele>475.03</ele>
        <time>2021-03-22T13:14:01Z</time>
      </trkpt>
      <trkpt lat="43.92959" lon="5.2106">
        <ele>474.07</ele>
        <time>2021-03-22T13:14:15Z</time>
      </trkpt>
      <trkpt lat="43.9295" lon="5.21053">
        <ele>474.07</ele>
        <time>2021-03-22T13:14:23Z</time>
      </trkpt>
      <trkpt lat="43.92948" lon="5.21052">
        <ele>474.07</ele>
        <time>2021-03-22T13:14:24Z</time>
      </trkpt>
      <trkpt lat="43.92946" lon="5.2105">
        <ele>473.59</ele>
        <time>2021-03-22T13:14:26Z</time>
      </trkpt>
      <trkpt lat="43.92945" lon="5.2105">
        <ele>473.59</ele>
        <time>2021-03-22T13:14:27Z</time>
      </trkpt>
      <trkpt lat="43.92927" lon="5.21032">
        <ele>473.11</ele>
        <time>2021-03-22T13:14:44Z</time>
      </trkpt>
      <trkpt lat="43.92926" lon="5.21031">
        <ele>473.11</ele>
        <time>2021-03-22T13:14:45Z</time>
      </trkpt>
      <trkpt lat="43.92925" lon="5.21031">
        <ele>473.11</ele>
        <time>2021-03-22T13:14:46Z</time>
      </trkpt>
      <trkpt lat="43.92924" lon="5.2103">
        <ele>473.11</ele>
        <time>2021-03-22T13:14:47Z</time>
      </trkpt>
      <trkpt lat="43.92923" lon="5.21029">
        <ele>473.11</ele>
        <time>2021-03-22T13:14:48Z</time>
      </trkpt>
      <trkpt lat="43.92913" lon="5.2102">
        <ele>472.14</ele>
        <time>2021-03-22T13:14:59Z</time>
      </trkpt>
      <trkpt lat="43.92907" lon="5.21009">
        <ele>471.18</ele>
        <time>2021-03-22T13:15:09Z</time>
      </trkpt>
      <trkpt lat="43.92899" lon="5.20998">
        <ele>471.18</ele>
        <time>2021-03-22T13:15:19Z</time>
      </trkpt>
      <trkpt lat="43.92895" lon="5.20987">
        <ele>470.7</ele>
        <time>2021-03-22T13:15:26Z</time>
      </trkpt>
      <trkpt lat="43.9289" lon="5.20972">
        <ele>470.7</ele>
        <time>2021-03-22T13:15:36Z</time>
      </trkpt>
      <trkpt lat="43.92883" lon="5.20953">
        <ele>469.74</ele>
        <time>2021-03-22T13:15:51Z</time>
      </trkpt>
      <trkpt lat="43.92877" lon="5.20935">
        <ele>468.78</ele>
        <time>2021-03-22T13:16:04Z</time>
      </trkpt>
      <trkpt lat="43.9287" lon="5.20912">
        <ele>468.78</ele>
        <time>2021-03-22T13:16:20Z</time>
      </trkpt>
      <trkpt lat="43.92863" lon="5.209">
        <ele>467.82</ele>
        <time>2021-03-22T13:16:30Z</time>
      </trkpt>
      <trkpt lat="43.92859" lon="5.20895">
        <ele>467.82</ele>
        <time>2021-03-22T13:16:34Z</time>
      </trkpt>
      <trkpt lat="43.92858" lon="5.20894">
        <ele>467.82</ele>
        <time>2021-03-22T13:16:35Z</time>
      </trkpt>
      <trkpt lat="43.92857" lon="5.20892">
        <ele>467.82</ele>
        <time>2021-03-22T13:16:36Z</time>
      </trkpt>
      <trkpt lat="43.92856" lon="5.20891">
        <ele>467.82</ele>
        <time>2021-03-22T13:16:37Z</time>
      </trkpt>
      <trkpt lat="43.92852" lon="5.20887">
        <ele>467.82</ele>
        <time>2021-03-22T13:16:41Z</time>
      </trkpt>
      <trkpt lat="43.92849" lon="5.20883">
        <ele>467.34</ele>
        <time>2021-03-22T13:16:44Z</time>
      </trkpt>
      <trkpt lat="43.92848" lon="5.20882">
        <ele>467.34</ele>
        <time>2021-03-22T13:16:45Z</time>
      </trkpt>
      <trkpt lat="43.92847" lon="5.2088">
        <ele>467.34</ele>
        <time>2021-03-22T13:16:47Z</time>
      </trkpt>
      <trkpt lat="43.92846" lon="5.20878">
        <ele>467.34</ele>
        <time>2021-03-22T13:16:48Z</time>
      </trkpt>
      <trkpt lat="43.92845" lon="5.20877">
        <ele>467.34</ele>
        <time>2021-03-22T13:16:49Z</time>
      </trkpt>
      <trkpt lat="43.92844" lon="5.20876">
        <ele>467.34</ele>
        <time>2021-03-22T13:16:50Z</time>
      </trkpt>
      <trkpt lat="43.92843" lon="5.20875">
        <ele>467.34</ele>
        <time>2021-03-22T13:16:51Z</time>
      </trkpt>
      <trkpt lat="43.92838" lon="5.20869">
        <ele>466.86</ele>
        <time>2021-03-22T13:16:57Z</time>
      </trkpt>
      <trkpt lat="43.9283" lon="5.20862">
        <ele>465.9</ele>
        <time>2021-03-22T13:17:04Z</time>
      </trkpt>
      <trkpt lat="43.9283" lon="5.2086">
        <ele>465.9</ele>
        <time>2021-03-22T13:17:05Z</time>
      </trkpt>
      <trkpt lat="43.92829" lon="5.20859">
        <ele>465.9</ele>
        <time>2021-03-22T13:17:06Z</time>
      </trkpt>
      <trkpt lat="43.92829" lon="5.20857">
        <ele>465.9</ele>
        <time>2021-03-22T13:17:07Z</time>
      </trkpt>
      <trkpt lat="43.92828" lon="5.20856">
        <ele>465.42</ele>
        <time>2021-03-22T13:17:08Z</time>
      </trkpt>
      <trkpt lat="43.92828" lon="5.20854">
        <ele>465.42</ele>
        <time>2021-03-22T13:17:09Z</time>
      </trkpt>
      <trkpt lat="43.92821" lon="5.20846">
        <ele>465.42</ele>
        <time>2021-03-22T13:17:17Z</time>
      </trkpt>
      <trkpt lat="43.92819" lon="5.20845">
        <ele>465.42</ele>
        <time>2021-03-22T13:17:18Z</time>
      </trkpt>
      <trkpt lat="43.92818" lon="5.20844">
        <ele>465.42</ele>
        <time>2021-03-22T13:17:19Z</time>
      </trkpt>
      <trkpt lat="43.92816" lon="5.20841">
        <ele>465.42</ele>
        <time>2021-03-22T13:17:21Z</time>
      </trkpt>
      <trkpt lat="43.92812" lon="5.20836">
        <ele>465.9</ele>
        <time>2021-03-22T13:17:26Z</time>
      </trkpt>
    </trkseg>
  </trk>
</gpx>